Bharatpur
S.No. Kiosk Code Kiosk Name LSP Address Ph. No. Credit Limit Remaining Limit Active / Deactive Creation Date Deactivation Date Prepaid Limit Virtual Limit
1 501 CSC Gopalgarh CSC Vakrangee Bharatpur Rural Village Gopalgarh  Block NAGAR  District BHARATPUR   9983757532  113  600  Active  10-10-2012    0.00 
2 742 CSC Seekri Chak No.1_WRS 2014-Aksh-BHARATPUR Village - Seekri Chak No. 1 Block - Nagar Dist. - Bharatpur  9828104120  117  Active  07-08-2014    .87  43.04 
3 743 CSC Karhi_WRS 2014-Aksh-BHARATPUR Village - Karhi Block - Karhi Dist. - Bharatpur  9461694089  138  Active  07-08-2014    695.66  224.78 
4 744 Vinod Kumar Sharma 2014-Aksh-BHARATPUR chudi market town nagar   Dist. - Bharatpur  9694431183  813  Active  07-08-2014    .56  120.52 
5 747 CSC Khera_WRS 2014-Aksh-BHARATPUR Village - Khera Block - Nadbai Dist. - Bharatpur  9057975797  789  Active  07-08-2014    56.28  330.00 
6 748 CSC Janoothar_WRS 2014-Aksh-BHARATPUR Village - Janoothar Block - Deeg Dist. Bharatpur  9602813066  95  Active  07-08-2014    441.7  200.87 
7 753 CSC Siras_WRS 2014-Aksh-BHARATPUR Village - Siras Block - Weir Dist. - Bharatpur  7732872541  26  Active  07-08-2014    47.02  13.58 
8 788 Ravi Saini 2014-Aksh-BHARATPUR Near Buis Stand Rarah Tehsil Kumher Dist. Bharatpur  9785056392  1488  Active  21-08-2014    500.98  961.30 
9 791 Mahendra Kumar 2014-Aksh-BHARATPUR Court Campus Tehsil, Bayana Dist. - Bharatpur  9461100334  2812  Active  21-08-2014    .38  7475.20 
10 797 Pavnesh Kumar 2014-Aksh-BHARATPUR Near PNB bank Khanua Teh. Rupwas Dist. Bharatpur  9928771440  42  Active  21-08-2014    3.97  2080.43 
11 807 Dinesh Kumar Sharma 2014-Aksh-BHARATPUR Shyam Nagar  Colony Behind Central School Bharatpur  7790898199  1762  Active  22-08-2014    502.06  559.56 
12 810 Nateen Singh 2014-Aksh-BHARATPUR Main Market Old Post  Office Pahari Tehsil  Disst. - Bharatpur  9783715200  827  Active  23-08-2014    -.74  19.13 
13 811 Laxmi Narayan 2014-Aksh-BHARATPUR 760 Kalakar Mohalla Jurahra Tehsil Kaman Disst. - Bharatpur  9982906461  68  Active  23-08-2014    .32  0.00 
14 816 Ghanshyam Saini 2014-Aksh-BHARATPUR Main Market Sikri Tehisl - Nagar Disst. - Bharatpur  9785508730  6533  Active  27-08-2014    .59  2171.78 
15 817 Sher Singh 2014-Aksh-BHARATPUR Hospital Ke Pass Uchchain Road Sear Bharatpur  9828607228  11928  Active  27-08-2014    77.37  2814.27 
16 818 Rakesh Kumar Sharma 2014-Aksh-BHARATPUR Prince Attachi House Deewan Mohalla  Kaman Bharatpur  9529480001  10000  762  Active  27-08-2014    .63  567.22 
17 819 Ashok Kumar 2014-Aksh-BHARATPUR VPO Bidyari  Tehsil 0 Bayana Bharatpur  9351939397  24  Active  27-08-2014    6.13  0.00 
18 855 Kamlesh Prasad Sharma 2014-Aksh-BHARATPUR Reliance Medicals Goal Baug road Bharatpur  8104525131  Active  08-09-2014    .74  0.00 
19 856 Fatte Krishna Gaur 2014-Aksh-BHARATPUR Bus Stand Jurhere  Tehsil - Kaman Disst. - Bharatpur  9649340809  241  Active  08-09-2014    .21  100.43 
20 865 Nakul Raj 2014-Aksh-BHARATPUR Single Window E Sugam Kumher  Dist. Jaipur  9785037811  2240  Active  11-09-2014    565.08  24300.39 
21 895 Meena Devi 2014-Aksh-BHARATPUR Near Court  Deeg Bharatpur  9414584015  10000  7799  Active  16-09-2014    .72  8909.99 
22 897 Mayuri emitra 2014-Aksh-BHARATPUR opposite govt.  hospital weir Bharatpur  9928585402  1163  Active  16-09-2014    .93  2943.22 
23 898 Mina Devi 2014-Aksh-BHARATPUR BNRGSK Panchayat Samiti DeeG Bharatpur  9829333108  Active  16-09-2014    .34  5739.12 
24 899 Sachin Khandelwal 2014-Aksh-BHARATPUR Near Devi Ram Kachori wala Choburja Market Bharatpur  9461695960  6942  Active  16-09-2014    .78  2392.26 
25 901 Santosh Kumar 2014-Aksh-BHARATPUR Surajmal Nagar Near Center School Bharatpur  9887112441  40000  35712  Active  17-09-2014    .54  189.39 
26 932 Zuber Khan 2014-Aksh-BHARATPUR Cheetha Wali Gali Chaburja Bazar Bharatpur  9462484927  7536  Active  25-09-2014    481.16  0.00 
27 933 Ashok Kumar 2014-Aksh-BHARATPUR Mastana Music Center Old Post Office  Bharatpur  9887102523  214  Active  25-09-2014    166.94  537.80 
28 966 Gulap Khandelwal 2014-Aksh-BHARATPUR Peer Mohalla  kaman Bharatpur  05640250100  40000  7970  Active  09-10-2014    .42  1049.06 
29 982 Manoj sharma 2014-Aksh-BHARATPUR Peer mohalla ward no 17 Kama Kaman Bharatpur  05640-251101  2385  Active  13-10-2014    51.52  487.83 
30 999 SUNIL KUMAR 2014-Aksh-BHARATPUR A32 JAWAHAR NAGAR  BHARATPUR   9414303388  5988  Active  22-10-2014    1088.53  299.39 
31 1000 ABHAY KUMAR JAIN 2014-Aksh-BHARATPUR INFRONT OF COURT BKAMAN  BHARATPUR   9875000161  105  Active  22-10-2014    2.18  62.17 
32 1001 RAJENDRA KUMAR 2014-Aksh-BHARATPUR prajapati mohalla teh nagar  BHARATPUR   9829829721  10153  Active  22-10-2014    393.54  0.00 
33 1002 Vishnu Kumar 2014-Aksh-BHARATPUR Tehsil Campus Bayana  Bharatpur   9672086606  750  Active  27-10-2014    6022.34  11621.72 
34 1003 Suresh Sharma 2014-Aksh-BHARATPUR Tehsil Parisar  Kaman Bharatpur  9413672361  2167  Active  27-10-2014    273.08  0.00 
35 1004 RITESH GARG 2014-Aksh-BHARATPUR Teshsil Campus Weir    9509489583  1172  Active  27-10-2014    .64  8998.94 
36 1005 Surendra Sharma 2014-Aksh-BHARATPUR Tehsil- Bhusawar Bharatpur- 321406   05643271000  1485  Active  27-10-2014    22.79  9225.64 
37 1006 MEENA DEVI 2014-Aksh-BHARATPUR Tehsil Campus Deeg   8058565580  Active  27-10-2014    1724.07  0.00 
38 1008 Deepak Kumar Jain 2014-Aksh-BHARATPUR Tehsil Office Bharatpur    9929929920  3806  Active  27-10-2014    .4  14381.28 
39 1029 Jitendra Kumar 2014-Aksh-BHARATPUR near bank of baroda  bayana Bharatpur  9783283874  79  Active  03-11-2014    .03  14.35 
40 1030 Amit Sharma 2014-Aksh-BHARATPUR Near Railway Station Bharatpur   9461582799  90000  78994  Active  03-11-2014    2530.28  3295.22 
41 1031 Gaurav Sharma 2014-Aksh-BHARATPUR New Santan Dharam  Market Bharatpur  9414375500  40000  544  Active  03-11-2014    .16  1057.43 
42 1038 Dharam Chand 2014-Aksh-BHARATPUR OLD PAHADI ROAD BILOD STAND KAMAN BHARATPUR    9950659910  236  Active  06-11-2014    123.06  2310.00 
43 1046 Sanjeev Kumar Sharma 2014-Aksh-BHARATPUR MUDGAL DIGITAL STUDIO NEW MANDI BHARATPUR    9166944376  73  Active  20-11-2014    .93  28.70 
44 1048 Purshottam 2014-Aksh-BHARATPUR NEAR PANCHAYAT SAMITI ROOPWAS DIST BHARATPUR RAJASTHAN    8058252616  7508  Active  20-11-2014    1046.49  16333.30 
45 1052 Dinesh Kumar Sharma 2014-Aksh-BHARATPUR JAIN MANDIR SE SAMNE PAHADI DIST BHARATPUR    9610107548  2617  Active  21-11-2014    123.65  181.74 
46 1073 Ram Kunwar 2014-Aksh-BHARATPUR MAIN MARKET SATAVADI DIST BHARATPUR RAJASTHAN    9001660241  732  Active  26-11-2014    .14  165.59 
47 1075 Mayank Jain 2014-Aksh-BHARATPUR NEAR JAIN MANDIR SEWAR ROAD BHARATPUR RAJASTHAN    9166772669  859  Active  27-11-2014    183.85  654.79 
48 1079 Aksh Optifibre 2014-Aksh-BHARATPUR Room No.55  Dist. collectrate  Bharatpur  9414059654  229  Active  27-11-2014    .47  794.39 
49 1081 Dharmveer Singh 2014-Aksh-BHARATPUR In front of Santoshi Temple Surajpole Gate Bharatpur  9529040674  10000  12621  Active  27-11-2014    .25  3974.82 
50 1082 Aksh Rajeev Gandhi Seva Kendra Bharatpur 2014-Aksh-BHARATPUR Bharat Nirmaan Rajeev Gandhi Seva Kendra Bharatpur   9414059654  20000  333  Active  27-11-2014    .99  2276.04 
51 1092 Jyoti Sharma 2014-Aksh-BHARATPUR TEHSIL NADBAI BHARATPUR    9024903752  1362  Active  01-12-2014    .12  5681.44 
52 1093 Parwesh Kumar 2014-Aksh-BHARATPUR SHOP NO 1 PNB ATM KE UPAR JAWAHAR NAGAR CIRCLE BHARATPUR RAJASTHAN    8890458315  766  Active  01-12-2014    9.35  38.26 
53 1094 Rajeswari Devi 2014-Aksh-BHARATPUR MAIN MARKET UCHCHAIN TEH ROOPWAS DIST BHARATPUR RAJASTHAN    9887433476  1799  Active  01-12-2014    .54  853.22 
54 1095 Ghanshyam Singhal 2014-Aksh-BHARATPUR BAPU MARKET NAGAT DIST BHARATPUR RAJASTHAN    9983956579  1638  Active  01-12-2014    .29  1276.00 
55 1097 Umesh Tiwari 2014-Aksh-BHARATPUR MURWARA ROAD SUBHASH NAGAR BHARATPUR RAJASTHAN    9413300272  851  Active  01-12-2014    .1  123.15 
56 1098 Vineet Kumar 2014-Aksh-BHARATPUR BIHARI GALI RUDAWAL DIST BHARATPUR RAJASTHAN    9649013300  1993  Active  02-12-2014    563.63  33.48 
57 1099 Parul 2014-Aksh-BHARATPUR KARTAR COLONY NEAR NEW TEHSIL KAMAN BHARATPUR RAJASTHAN    7597755001  1632  Active  02-12-2014    .5  2257.39 
58 1105 Aksh Optifibre Limited 2014-Aksh-BHARATPUR BNSK HQ TEHSIL ROOPWAS DISTRICT BHARATPUR     9694420125  152  Active  05-12-2014    344.56  822.61 
59 1112 Mohit Kumar Gupta 2014-Aksh-BHARATPUR 122 RAJENDRA NAGAR BHARATPUR RAJASTHAN    9414692950  4014  Active  11-12-2014    .73  990.72 
60 1113 Durga Prasad 2014-Aksh-BHARATPUR RADHA COLONY, NEAR RADHA BALLABH TEMPLE  KAMAN, BHARATPUR undefined  9829121852  537  Active  11-12-2014    8.88  100.43 
61 1121 Hemant Kumar Garg 2014-Aksh-BHARATPUR SHOP N0 97 NEAR OLD COLLECTARY BHARATPUR    9782505764  479  Active  17-12-2014    .08  5729.79 
62 1131 Naeem Khan 2014-Aksh-BHARATPUR ANAND NAGAR COLONY BHARATPUR RAJASTHAN    9694946814  44  Active  19-12-2014    .22  1014.87 
63 1141 Lekhraj Bhardwaj 2014-Aksh-BHARATPUR Kaliki Bageechi Bharatpur Rajasthan-321001   9875228260  40000  40000  Active  22-12-2014    109.81  0.00 
64 1142 Anil Kumar jindal 2014-Aksh-BHARATPUR In front of Sindhi dharmashala Gate Road  Bharatpur  9694139121  240000  21695  Active  22-12-2014    .7  1712.94 
65 1143 Dilip Kumar Pahadia 2014-Aksh-BHARATPUR Old Anaj Mandi Bhusawar Bharatpur  9875057615  90000  350  Active  22-12-2014    15.96  789.13 
66 1145 Rama eMitra Centre 2014-Aksh-BHARATPUR Basan Gate Chouraha Bharatpur   9667621874  120000  29189  Active  22-12-2014    .82  5363.45 
67 1146 Gurumeet eMitra 2014-Aksh-BHARATPUR Bizli Ghar Collectrate Road  Bharatpur  05644220610  40000  14228  Active  22-12-2014    .91  6294.63 
68 1147 Aditiya emitra kiosk 2014-Aksh-BHARATPUR Near Devi Temple Ranjeet Nagar Bharatpur  9461336851  40000  6578  Active  22-12-2014    .42  2389.34 
69 1148 Jeetendra Emitra Center 2014-Aksh-BHARATPUR Golpura Road, Subhash nagar behind central bus stand Bharatpur  9414893789  90000  28898  Active  22-12-2014    .55  1420.67 
70 1150 Lokesh Sharma 2014-Aksh-BHARATPUR Infront of RTO Office Anah Bharatpur  9887959411  90000  408  Active  22-12-2014    1209.98  61.60 
71 1152 Manish emitra Center 2014-Aksh-BHARATPUR Manish emitra center Mahal khas road kila  Bharatpur  9982920850  50000  49276  Active  22-12-2014    4769.05  3355.24 
72 1153 Manoj Chahar 2014-Aksh-BHARATPUR Infornt of MSJ College 23-Geeta Colony  Bharatpur  9680838811  33737  Active  22-12-2014    .47  2824.85 
73 1154 Manoj Khandelwal 2014-Aksh-BHARATPUR Near Kiran Niwas home ke  goverdhan gate  Bharatpur  9783001714  Active  22-12-2014    -.84  2535.26 
74 1155 Manoj emitra Center 2014-Aksh-BHARATPUR Pratap colony Kumer gate Bharatpur  8058079654  1805  Active  22-12-2014    .63  119.57 
75 1156 Mohit Khandelwal 2014-Aksh-BHARATPUR Chhote Ramji ke samne Kumher  Bharatpur  8875075750  855  Active  22-12-2014    .1  610.74 
76 1157 Narendra kumar Jindal 2014-Aksh-BHARATPUR Behind of ganga Mandir Chohara near Budh ki hat Bharatpur  9414344163  140000  1180  Active  22-12-2014    2470.09  1422.11 
77 1158 Paritosh 2014-Aksh-BHARATPUR 28, shoping center  Krishna Nagar Bharatpur  9828102544  10000  8241  Active  22-12-2014    236.97  483.04 
78 1160 Vinay Goyal 2014-Aksh-BHARATPUR Kumher Road Bus Stand ke Samne katra Nadbai Bharatpur  9785615572  90000  202  Active  22-12-2014    8.64  387.39 
79 1161 Atul Emitra 2014-Aksh-BHARATPUR Gandhi Chowk  Bayana Bharatpur  9414485885  40000  300  Active  22-12-2014    .46  1133.48 
80 1162 Banvari Shrama Emitra Bayana 2014-Aksh-BHARATPUR Cachari Road  Bayana Bharatpur  9887241956  2475  Active  22-12-2014    30.27  3470.25 
81 1163 Bhoodev Goyal Emitra Center Nadbai 2014-Aksh-BHARATPUR Near APS School ware House Road nadbai Bharatpur  9024920267  40000  3605  Active  22-12-2014    .81  416.09 
82 1164 Chandra Shekhar Sharma 2014-Aksh-BHARATPUR Near Panchayat Samiti  Sewar Bharatpur  9782565377  30000  2008  Active  22-12-2014    38.03  1553.39 
83 1165 Mukesh emitra Center 2014-Aksh-BHARATPUR Near Ghanta Ghar Deeg Bharatpur  9414870877  40000  11  Active  22-12-2014    .46  1793.48 
84 1167 Nidhi eMitra Center 2014-Aksh-BHARATPUR Krishna Nagar Bharatpur   9828265217  3023  Active  22-12-2014    91.15  921.13 
85 1169 Rohit eMitra Center 2014-Aksh-BHARATPUR Arya Samaj Road Bharatpur   9252066443  40000  800  Active  22-12-2014    156.58  1211.67 
86 1170 Chankee Arora 2014-Aksh-BHARATPUR Ridhi Sidhi complex infront of thana  Nadbai Bharatpur  9166437449  2728  Active  22-12-2014    .07  642.78 
87 1172 Deepak Emitra Center 2014-Aksh-BHARATPUR Tehsil parisar ke andar Nagar Bharatpur  9887835434  1395  Active  22-12-2014    .23  4050.86 
88 1173 Suresh Sharma emitra Center 2014-Aksh-BHARATPUR Near New Tehsil Kaman Bharatpur   9413672361  3585  Active  22-12-2014    .46  21037.22 
89 1174 Mahesh Sharma 2014-Aksh-BHARATPUR New Road  Deeg Bharatpur  05641220820  90000  9764  Active  22-12-2014    1.22  1606.95 
90 1177 Yatendra Kumar 2014-Aksh-BHARATPUR Nomish Road Bharatpur   9667179064  Active  22-12-2014    77.37  0.00 
91 1178 Deepak Gupta 2014-Aksh-BHARATPUR Middle School Ki Gali Deeg Bharatpur  9887228511  1554  Active  22-12-2014    .31  1138.26 
92 1179 Pramod Singh 2014-Aksh-BHARATPUR Near Saini Mishtan Bhandar Bus stand, Bharatpur   9887764466  90000  18  Active  22-12-2014    3.34  4.78 
93 1180 Lalit Khatri 2014-Aksh-BHARATPUR Near Shamshan Ghat Subhash Colony Bharatpur  9413303004  134  Active  22-12-2014    .92  559.23 
94 1181 Pankaj Jain 2014-Aksh-BHARATPUR Jain Computers Katra Nadbai Bharatpur  05643276714  40000  4262  Active  22-12-2014    .09  2309.23 
95 1182 Rachna Sharma 2014-Aksh-BHARATPUR Anah Gate Bajariya Bharatpur   9785099684  30000  662  Active  22-12-2014    .33  353.91 
96 1183 MOHAN LAL GUPTA 2014-Aksh-BHARATPUR MELA GROUND NAGAR NAGAR, BHARATPUR  9928352201  40000  19260  Active  22-12-2014    14055.14  344.35 
97 1185 Deepak Verma 2014-Aksh-BHARATPUR Near P N B Bank Kumher Bharatpur  9887512513  15000  40  Active  22-12-2014    1500.17  1114.35 
98 1186 Madan Mohan 2014-Aksh-BHARATPUR New Bust Stand Weir Bharatpur   9468664073  15000  232  Active  22-12-2014    228.74  3457.82 
99 1187 Rakesh Sharma 2014-Aksh-BHARATPUR Madarpur Road Infront of Podar Kothi Bharatpur   9887353542  90000  1326  Active  22-12-2014    .43  806.35 
100 1188 Neeraj 2014-Aksh-BHARATPUR Super Market  GPF Office Ke Samne Bharatpur  9680702196  40000  Active  22-12-2014    .17  228.37 
101 1189 Deepak Raj 2014-Aksh-BHARATPUR 109 Sewar Bazar Sewar Bharatpur  9928328689  10000  6045  Active  22-12-2014    .24  3590.78 
102 1191 Pooja Khandelwal 2014-Aksh-BHARATPUR B 4 Jawahar Nagar Bharatpur   05644220008  1250  Active  22-12-2014    .65  760.67 
103 1192 Rupesh Kumar 2014-Aksh-BHARATPUR Ram Singh Ka Nagla Bajariya Bharatpur  9785362498  15000  184  Active  22-12-2014    .65  772.87 
104 1193 Jitendra Sharma 2014-Aksh-BHARATPUR Dahi wali Gali Near Mahadev Mandir  Bharatpur  9309390022  Active  22-12-2014    .84  0.00 
105 1194 Manoj Kumar 2014-Aksh-BHARATPUR Saharai Road Deeg Bharatpur  9983406728  6951  Active  22-12-2014    1.06  1902.52 
106 1195 Ravi Shankar Sharma 2014-Aksh-BHARATPUR Goverdhan Road Deeg Bharatpur  8058568722  10000  19  Active  22-12-2014    .09  541.97 
107 1196 Veerendra Singh 2014-Aksh-BHARATPUR Near S.P. Office Bharatpur   9887002112  9652  Active  22-12-2014    7.91  2193.78 
108 1197 Ritvis Cyber World 2014-Aksh-BHARATPUR 475 SPM Nagar Bharatpur   9784648494  3834  Active  22-12-2014    .91  811.37 
109 1199 Sudhir Kumar Sharma 2014-Aksh-BHARATPUR BNRGSK Panchayat Samiti Nadwai  9887982284  711  Active  22-12-2014    .42  1391.74 
110 1201 Hitesh Kumar 2014-Aksh-BHARATPUR BNRGSK Panchayat Samiti Kaman  9887242675  15000  1528  Active  22-12-2014    13.54  2228.69 
111 1202 Honey Saraswat 2014-Aksh-BHARATPUR BNRGSK Panchayat Smiti Bayana  9414942200  114  Active  22-12-2014    6699.77  4686.96 
112 1203 Manvendra 2014-Aksh-BHARATPUR 36, Shopping Center Krishna Nagar Bharatpur   9799348952  2265  Active  22-12-2014    .21  3955.21 
113 1204 Pankaj Yadav 2014-Aksh-BHARATPUR Near Suraj Pole Gate Gopal Garh Bharatpur   9782597856  3589  Active  22-12-2014    32.13  506.96 
114 1207 Rajendra Goyal 2014-Aksh-BHARATPUR Near Power House Bharatpur   9530445152  1890  Active  22-12-2014    2.84  4492.78 
115 1208 Pradeep Kaushik 2014-Aksh-BHARATPUR Nabab Gali Mathura Gate Bharatpur   9413304237  2171  Active  22-12-2014    919.95  18.57 
116 1210 Dinesh Kumar Goyal 2014-Aksh-BHARATPUR Sadar Bazar Kaman  Bharatpur   9351721784  2888  Active  22-12-2014    .78  2501.30 
117 1211 Ravi Prakash 2014-Aksh-BHARATPUR Old Sabji Mandi Near Main Post Office Bayana Bharatpur  9460174979  2041  Active  22-12-2014    -.82  910.69 
118 1212 Sushil Shukla 2014-Aksh-BHARATPUR A-12 Ranjeet Nagar Bharatpur   9460012395  2589  Active  22-12-2014    483.5  98.52 
119 1213 Hirendra Kumar 2014-Aksh-BHARATPUR Near S.B.I. Bank  Kumhar Gate  Bharatpur  9667153781  Active  22-12-2014    .09  291.45 
120 1215 Praveen Kumar 2014-Aksh-BHARATPUR Infornt of Police Station  Nadbai Bharatpur  9461694089  263  Active  22-12-2014    194.62  3459.73 
121 1216 Devendra Pal 2014-Aksh-BHARATPUR Kasgang Road Nadabi Bharatpur   9785467573  1592  Active  22-12-2014    14.24  1720.73 
122 1217 Arun Kumar Saxena 2014-Aksh-BHARATPUR Near Mahaveer Public School Rundhiya Nagar Bharatpur  9468885839  454  Active  22-12-2014    316.11  216.62 
123 1223 Aksh Optifiber Limited 2014-Aksh-BHARATPUR JILA UDHYOG KENDRA BHARATPUR RAJASTHAN     01412770085  466  Active  25-12-2014    .75  143.48 
124 1230 Aslam 2014-Aksh-BHARATPUR BNRGSK Panchayat Samiti Nagar  9982090666  2024  Active  25-12-2014    .84  16004.49 
125 1255 Ganesh Dutt Mishra 2014-Aksh-BHARATPUR GOPALGHAR BHARATPUR    9680714485  2583  Active  09-01-2015    37.38  749.67 
126 1258 Ram Mohan 2014-Aksh-BHARATPUR ANHA  GATE BAJARIYA BHARATPUR    8387978336  209  Active  09-01-2015    .69  877.85 
127 1259 Daniel 2014-Aksh-BHARATPUR OUTSIDE  SURAJ POLE GATE BHARATPUR   9783863436  1504  Active  09-01-2015    .49  605.48 
128 1260 Pankaj Kumar Koli 2014-Aksh-BHARATPUR RAJEEV GNADHI SEVA KENDRA  AKHAIGAR NADBAI BHARATPUR   9785196307  606  Active  09-01-2015    -.88  1769.56 
129 1265 Satyendra Singh 2014-Aksh-BHARATPUR VEAR HOUSE ROAD NEAR POST  OFFICE, NADABI BHARATPUR   9875200277  1403  Active  10-01-2015    .41  143.48 
130 1266 Rajkumari Rajora 2014-Aksh-BHARATPUR COMPUTECH COMPUTER CENTER  NEAR KHADHI A SHARAM WEIR DIST BHARATPUR  9001733488  1851  Active  10-01-2015    262.62  546.88 
131 1267 Pavan Kumar 2014-Aksh-BHARATPUR ANHA GATE BAJARIYA BHARATPUR    9414000016  808  Active  10-01-2015    .12  1039.98 
132 1271 Azad Khan 2014-Aksh-BHARATPUR TESHIL CAMPUS NAGAR BHARATPUR    9887712794  29  Active  16-01-2015    .22  999.56 
133 1281 JIYA RAHMAN 2014-Aksh-BHARATPUR Jiya rahaman emitra center babu bazar Bhartpur   9829753722  1287  Active  20-01-2015    .16  4453.56 
134 1282 Ashok Kumar Sharma 2014-Aksh-BHARATPUR MAIN MARKET NEAR POLICE CHOKI DEEG BHARATPUR    9351329943  344  Active  20-01-2015    .77  1476.30 
135 1307 Bhupendra Agrawal 2014-Aksh-BHARATPUR AGRAWAL COMPUTER POINT, NEAR AGRAWAL DHARMSHALA   KAMAN BHARATPUR RAJASTHAN   7877030711  125  Active  28-01-2015    -.55  409.96 
136 1310 Naresh Chand Agarwal 2014-Aksh-BHARATPUR MORI CHAR BAGH OPP. EYE HOSPITAL BHARATPUR RAJASTHAN    9414307673  335  Active  28-01-2015    19.07  29.41 
137 1311 Radha Kumari 2014-Aksh-BHARATPUR VILLAGE BANSI PHADPUR TEHSIL RUPBAS BHARATPUR RAJASTHAN    9875003256  30  Active  28-01-2015    .89  86.09 
138 1317 Bholu Ram Sharma 2014-Aksh-BHARATPUR ATAL SEWA KENDRA AKTA BHARATPUR RAJASTHAN    8058200671  1103  Active  29-01-2015    48.32  0.00 
139 1331 Lalit Mohan 2014-Aksh-BHARATPUR NEAR PNB BANK OLD BYEPASS ROAD NAGAR BHARATPUR RAJASTHAN    9024528958  405  Active  03-02-2015    1662.62  382.61 
140 1332 Praveen Kumar 2014-Aksh-BHARATPUR ATAL SAMPARK KENDRA USRANI KUMHER BHARATPUR RAJASTHAN    9785506082  2095  Active  03-02-2015    60.67  4593.21 
141 1339 Bijendra Singh Gurjar 2014-Aksh-BHARATPUR GANDHI CHAUK BAYANA  BHARATPUR RAJASTHAN   9351950965  4450  Active  04-02-2015    .33  425.65 
142 1340 Sanjay Kumar 2014-Aksh-BHARATPUR LAXMAN MANDIR BHARATPUR RAJASTHAN    9414200200  4644  Active  04-02-2015    .65  546.89 
143 1341 Sanjay Kumar Saini 2014-Aksh-BHARATPUR OUT SIDE SOORAJPOL GATE BHARATPUR RAJASTHAN    9529192492  57  Active  04-02-2015    619.83  0.00 
144 1346 Akram Hussain Panwar 2014-Aksh-BHARATPUR PAWAR AGRICULTURE  FARM ALWAR ROAD NAGAR BHARATPUR RAJASTHAN   9413160786  Active  05-02-2015    803.25  0.00 
145 1378 Veerendra Kumar 2014-Aksh-BHARATPUR VPO KALSARA TEH BAYANA BHARATPUR RAJASTHAN    9783335317  12  Active  09-02-2015    27.64  401.74 
146 1389 Rajesh Kumar 2014-Aksh-BHARATPUR KUMHER ROAD NADBAI BHARATPUR RAJASTHAN    9782848895  743  Active  18-02-2015    -.18  717.39 
147 1390 Shyam Sundar Gupta 2014-Aksh-BHARATPUR ATAL SEWA KENDRA JANOOTHAR DEEG BHARATPUR RAJASTHAN    00000000000000  394  Active  18-02-2015    139.7  -13.20 
148 1391 Varish 2014-Aksh-BHARATPUR RAJEEV GANDHI KENDRA  GULPARA NAGAR BHARATPUR RAJASTHAN   9772003536  Active  18-02-2015    .77  0.00 
149 1392 Mausam Khan 2014-Aksh-BHARATPUR RAJEEV GANDHI Kendra Samler Pahari Nagar Bharatpur Rajasthan    8094101616  790  Active  18-02-2015    56.77  0.00 
150 1393 Prateek Singhal 2014-Aksh-BHARATPUR STATE BANK KI GALI  DEEVAN MOHALLA KAMANSTATE BANK KI GALI DEEVAN MOHALLA KAMAN BHARATPUR RAJAS   9529208400  1934  Active  18-02-2015    .64  95.65 
151 1394 Krishan Murari 2014-Aksh-BHARATPUR MADHUR COMPUTERS ANAH GATE BHARATPUR RAJASTHAN    9414376540  52  Active  18-02-2015    .21  634.65 
152 1395 Shyam Sundar 2014-Aksh-BHARATPUR KISHORI PAYASA MOHALLA KAMAN BHARATPUR RAJASTHAN    8290431006  16  Active  18-02-2015    166.18  0.00 
153 1425 Umesh Chand 2014-Aksh-BHARATPUR ATAL SEWA KENDRA MATUKI TEH. KAMAN DIST BHARATPUR RAJASTHAN    9828130014  1048  Active  27-02-2015    .76  593.04 
154 1428 Anil Kumar Sharma 2014-Aksh-BHARATPUR KAMLA ROAD BASAN GATE BHARATPURRAJASTHAN    9782505905  250  Active  02-03-2015    .94  564.35 
155 1429 Jagdish Prasad Sharma 2014-Aksh-BHARATPUR NEAR GIRLSSCHOOL PAHARI ROAD KAMAN BHARATPUR RAJASTHAN    05640251351  3796  Active  02-03-2015    .11  712.61 
156 1431 Bharat Singh 2014-Aksh-BHARATPUR ATAL SEWA KENDRA SIRAS TEH. WEIR DIST BHARATPUR RAJASTHAN    9660347923  302  Active  02-03-2015    1500.42  2180.87 
157 1432 Anuj Agarwal 2014-Aksh-BHARATPUR INFRONT OF GOAL GATE ARYA SAMAJ BHARATPUR    9928941555  437  Active  02-03-2015    61.56  76.28 
158 1433 Daulat Singh 2014-Aksh-BHARATPUR BRIJ NAGAR BHARATPUR RAJASTHAN    9667844838  93  Active  02-03-2015    248.41  38.26 
159 1442 Shakir 2014-Aksh-BHARATPUR RAJEEV GANDHI KENDRA KAKRALA NAGAR BHARATPUR RAJASTHAN    9828197456  71  Active  03-03-2015    1.12  0.00 
160 1443 Dharmendra Singh 2014-Aksh-BHARATPUR ATAL SEWA KENDRA DAURDA TEHSIL ROOPWAS Bharatpur    9587363073  81  Active  03-03-2015    -.47  813.04 
161 1444 Brij Mohan 2014-Aksh-BHARATPUR ATAL SAMPARK KENDRA KHOH DEEG Bharatpur    9887685567  69  Active  03-03-2015    8.59  588.26 
162 1451 Aksh Optifibre Limited 2014-Aksh-BHARATPUR BAYANA, PHARASO District- BHARATPUR (Rajasthan    9414377104  65  Active  11-03-2015    9.12  9.57 
163 1452 Omprakash 2014-Aksh-BHARATPUR BANSI KALAN BUS STAND Teh Sewar Dist Bharatpur Rajasthan    9887493560  254  Active  11-03-2015    .69  2405.65 
164 1453 Hitesh Kumar 2014-Aksh-BHARATPUR SINGLE WINDOW E SUGAM TEHSIL PAHARI DISST BHARATPUR    9251002005  715  Active  12-03-2015    .15  19556.05 
165 1455 Yahaya 2014-Aksh-BHARATPUR ATAL SEWA KENDRA NOGAWAN BAMNI TEH KAMAN BHARATPUR RAJASTHAN    9828412828  Active  13-03-2015    80.36  11.00 
166 1459 Kuldeep Singh 2014-Aksh-BHARATPUR ATAL SEWA KENDRA GANGROLI TEH. WEIR DIST BHARATPUR    9667234914  2717  Active  16-03-2015    -.08  1014.15 
167 1464 Rekha 2014-Aksh-BHARATPUR Atal Sewa Kendra,Gangroly Weir   8696805758  335  Active  19-03-2015    23.89  550.00 
168 1465 Jagdish Singh 2014-Aksh-BHARATPUR ATAL SEWA KENDRA CHICHANA    7691036392  3106  Active  19-03-2015    .79  2108.17 
169 1466 Nyaj Mohammad 2014-Aksh-BHARATPUR Nagar,Fatehpur Kala Fatehpur Kala   9549890604  1853  Active  19-03-2015    2.54  832.17 
170 1467 Deepak Singh 2014-Aksh-BHARATPUR ATAL SEWA KENDRA JALALAPUR TEH. NAGAR BHARATPUR    9928319699  193  Active  19-03-2015    .97  813.04 
171 1468 Babu Lal 2014-Aksh-BHARATPUR Atal Sewa Kendra,Sihawali Nagar   8239112676  15  Active  19-03-2015    1.85  871.39 
172 1469 Naresh Kumar Dhadoriya 2014-Aksh-BHARATPUR ATAL SEWA KENDRA ANDHIYARI TEH. RUPBAS Bharatpur    8058984002  360  Active  19-03-2015    -.58  1190.98 
173 1470 Neeraj 2014-Aksh-BHARATPUR ATAL SEWA KENDRA SONGAWN TEH.DEEG    8058222137  3118  Active  19-03-2015    -.86  530.87 
174 1472 Aksh Optifibre Limited 2014-Aksh-BHARATPUR A.En Office,Old Power House Bharatpur   9887877254  33  Active  20-03-2015    .91  250.80 
175 1478 Lakhan Singh 2014-Aksh-BHARATPUR ATAL SEWA KENDRA BADANGARH TEH. DEEG BHARATPUR    9982665647  510  Active  23-03-2015    150.91  162.61 
176 1479 Dileep Kumar Sharma 2014-Aksh-BHARATPUR ATAL SEWA KENDRA NAROLI     7568593912  35  Active  23-03-2015    13.63  0.00 
177 1505 Pushapendra Kumar Sharma 2014-Aksh-BHARATPUR ATAL SEWA KENDRA PICHUNA     9694806607  712  Active  25-03-2015    131.66  927.82 
178 1506 Brijmohan Singh Maggo 2014-Aksh-BHARATPUR ANAH GATE BAJARIYA BHARATPUR Rajasthan    7615801777  52  Active  25-03-2015    .81  334.78 
179 1507 Gurmeet Singh 2014-Aksh-BHARATPUR WARD N0 24 GOLBAG ROAD MATHURA GATE BHARATPUR    9587000115  2050  Active  25-03-2015    432.14  2629.95 
180 1508 Ajeet Singh 2014-Aksh-BHARATPUR ATAL SEWA KENDRA PATHENA THE. WEIR BHARATPUR RAJASTHAN    9887515038  1971  Active  25-03-2015    2.01  -38.26 
181 1509 Vishnu Kumar Gupta 2014-Aksh-BHARATPUR ATAL SEVA KENDRA RARAH    9950780243  Active  25-03-2015    .72  66.96 
182 1510 Radhe Shyam Rajpoot 2014-Aksh-BHARATPUR ATAL SEWA KENDRA GOGERA TEH .BHUSAWAR    9413837008  3805  Active  25-03-2015    -.71  310.87 
183 1795 Hari Mohan 2014-Aksh-BHARATPUR ATAL SEWA KENDRA UBAR TEH KUMHER BHARATPUR    7023396261  39  Active  06-04-2015    1.47  33.10 
184 1798 Lokesh Kumar 2014-Aksh-BHARATPUR ATAL SEWA KENDRA KHESTI    9024062105  1495  Active  06-04-2015    1.36  1288.05 
185 1799 Harnam Singh 2014-Aksh-BHARATPUR ATAL SEWA KENDRA SADHPURI TEH. NAGAR    8502807926  20  Active  06-04-2015    26.04  114.78 
186 1819 Harmeet Singh 2014-Aksh-BHARATPUR ATAL SEWA KENDRA BASBURJA TEH. NAGAR Bharatpur    8426020062  14174  Active  11-04-2015    .05  1501.74 
187 1822 Yashwant Singh 2014-Aksh-BHARATPUR VILLAGE POST PATHENA BABEKHAR TEH.BHUSAWAR BHARATPUR    9413027496  246  Active  11-04-2015    .56  1303.74 
188 1823 Gaurav Agrawal 2014-Aksh-BHARATPUR 29 STC HOUSING BOARD COLONEY BHARATPUR    9680399300  21  Active  11-04-2015    384.96  0.00 
189 1824 Veerendra Singh 2014-Aksh-BHARATPUR POST GOPALGARH THESIL PAHARI Bharatpur    9461623407  548  Active  11-04-2015    1890.67  41.24 
190 1825 Bhavnesh Kumar 2014-Aksh-BHARATPUR ATAL SEWA KENDRA JAHANGEERPUR TEH.NADBAI Bharatpur Rajasthan    8426924549  Active  11-04-2015    30.36  208.52 
191 1826 Tufail Khan 2014-Aksh-BHARATPUR ATAL SEWAKENDRA GHOSINGA TEH. PAHARI    8058533192  60  Active  11-04-2015    19.94  9.57 
192 1827 Samay Singh 2014-Aksh-BHARATPUR ATAL SEWA KENDRA DHADHAIN TEH BAYANA    9950486489  71  Active  11-04-2015    6.05  3.77 
193 1828 Khem Singh 2014-Aksh-BHARATPUR ATAL SEWA KENDRA ODELGADDI TEH,RUPWAS    9672333434  6010  Active  11-04-2015    .42  9.57 
194 1829 Chandra Sekhar Sharma 2014-Aksh-BHARATPUR ATAL SEWA KENDRA SHEESHWADA TEH. DEEG    9672327226  16  Active  11-04-2015    288.24  4.78 
195 1830 Yashpal Singh 2014-Aksh-BHARATPUR ATAL SEWA KENDRA SALEMPUR KALAN TEH.BHUSAWAR    7891508503  514  Active  11-04-2015    .45  478.26 
196 1879 Harish Chand 2014-Aksh-BHARATPUR SURAJ BAGH COLONY KAMAN BHARATPUR    9460963151  997  Active  15-04-2015    334.78 
197 1924 Pavan Kumar 2014-Aksh-BHARATPUR ATAL SEWA KENDRA MAHMADPURA THE. BAYANA Bharatpur Rajasthan    9785300376  19655  Active  17-04-2015    909.58  411.30 
198 1925 Surendra Singh 2014-Aksh-BHARATPUR ATAL SEWA KENDRA BHARAMDA THE. NADBAI Bharatpur Rajasthan    9680480465  Active  17-04-2015    -.58  0.00 
199 1936 Nadeem 2014-Aksh-BHARATPUR ANAJ MANDI KE SAMNE  KOSI ROAD KAMAN Bharatpur   9001409058  7922  Active  17-04-2015    127.09  0.00 
200 1938 Santosh Kumar 2014-Aksh-BHARATPUR NERA DURGA TEMPLE RANJEET  NAGAR BHARATPUR   9887039878  80  Active  17-04-2015    .54  100.43 
201 1940 Mukesh Saini 2014-Aksh-BHARATPUR NAGAR ROAD, DEEG Bharatpur Rajasthan    9636585941  1886  Active  17-04-2015    49.93  970.87 
202 1944 Raghvendra Sharma 2014-Aksh-BHARATPUR RADHA KRISHNA MANDIR WALI GALI B- NARAYAN GATE BHARATPUR     9828856009  660  Active  18-04-2015    .24  1296.08 
203 1945 Mukesh Chand 2014-Aksh-BHARATPUR IN FRONT OF NAGAR PALIKA NADBAI BHARATPUR RAJASTHAN     9887963208  5533  Active  18-04-2015    28.06  817.83 
204 1946 Lakhan Singh 2014-Aksh-BHARATPUR PADAM VIHAR COLONY SEWAR ROAD BHARATPUR    9468681247  Active  18-04-2015    .05  4.78 
205 1949 Raju Singh 2014-Aksh-BHARATPUR 52, JATAV MOHALLA SADPURI THE. NAGAR Bharatpur Rajasthan    8094133729  233  Active  18-04-2015    581.95  286.96 
206 1950 Mukesh Chand Sharma 2014-Aksh-BHARATPUR RADHA SWAMI SCHOOL KE SAMNE KHERLI  ROAD NAGAR BHARATPUR   9460646954  6162  Active  18-04-2015    .56  928.78 
207 1951 Pushpendra Kumar 2014-Aksh-BHARATPUR ATAL SEWA KENDRA FARSO THE. BAYANA BHARATPUR RAJASTHAN    9887740044  2741  Active  18-04-2015    136.56  9.57 
208 1964 Vinod Kumar Sharma 2014-Aksh-BHARATPUR MAIN MARKET SEWAR BHARATPUR    9649644179  800  Active  22-04-2015    262.58  315.65 
209 2014 Mousam 2014-Aksh-BHARATPUR ATAL SEVA KENDRA DHAULET TEH PAHARI    9887812410  680  Active  29-04-2015    .44  39.10 
210 2015 Suveer Chhonkar 2014-Aksh-BHARATPUR NEW CIVIL LINES WARD N0. 39 BHARATPUR    8560087478  1170  Active  29-04-2015    .22  530.87 
211 2017 Jal Singh 2014-Aksh-BHARATPUR KHERLI GADASIYA TEH. BAYANA Bharatpur    9784913377  819  Active  29-04-2015    .07  1018.69 
212 2018 Dalveer Singh 2014-Aksh-BHARATPUR DHERA, BORAI  Bharatpur   9667518871  Active  29-04-2015    -.3  23.91 
213 2031 Yashpal Singh 2014-Aksh-BHARATPUR ATAL SEWA KENDRA ,BACHHRAIN TEH. WEIR BHARATPUR.    9680771458  1404  Active  30-04-2015    278.59  664.78 
214 2035 Vikram Singh 2014-Aksh-BHARATPUR ATAL SEWA KENDRA BARAI THE.DEEG, Bharatpur    9680467064  212  Active  30-04-2015    628.23  47.83 
215 2038 Ijhar 2014-Aksh-BHARATPUR ATAL SEWA KENDRA DHOULET THE. PAHARI Bharatpur    8058657171  Active  30-04-2015    3246.37  0.00 
216 2040 Ved Prakash 2014-Aksh-BHARATPUR ATAL SEWA KENDRA TERHIYA THE.RUPWAS BHARATPUR    05648277021  1032  Active  30-04-2015    332.29  808.26 
217 2041 Ramveer Singh 2014-Aksh-BHARATPUR ATAL SEWA KENDRA BARSO BHARATPUR    9887493642  98  Active  30-04-2015    55.95  0.00 
218 2043 Pushpendra Kumar 2014-Aksh-BHARATPUR PUSHPENDRA EMITRA CENTRE GOPALGARH BHARATPUR RAJASTHAN    9413303160  12  Active  30-04-2015    99.64  -23.20 
219 2044 Nitin Kumar Sachdeva 2014-Aksh-BHARATPUR BABA PHOTOSTATE JUREHRA THE. KAMAN Bharatpur    9667069627  45  Active  30-04-2015    42.15  0.00 
220 2046 Rinku Kumar Rawat 2014-Aksh-BHARATPUR MOROLI DAHAR TEH. RUPWAS, Bharatpur    9927130712  808  Active  30-04-2015    .91  0.00 
221 2048 Ashok Kumar 2014-Aksh-BHARATPUR 135, RUNDHIYA NAGAR NEAR GIRRAJ KENAL BHARATPUR Rajasthan    9828370901  293  Active  01-05-2015    -.47  240.56 
222 2059 Hemant Kumar Sharma 2014-Aksh-BHARATPUR PURABAI KHERA TEH. BAYANA DIST BHARATPUR    9772739816  12983  Active  04-05-2015    296.29  0.00 
223 2070 Rajpal Yadav 2014-Aksh-BHARATPUR KALYAN MOHALLA KAMAN BHARATPUR RAJASTHAN    8058657957  285  Active  05-05-2015    25.3  0.00 
224 2071 Khem Singh 2014-Aksh-BHARATPUR ATAL SEWA KENDRA SALABAD THE. BAYANA    9887368362  74  Active  05-05-2015    97.91  19.13 
225 2072 Subham Khandelwal 2014-Aksh-BHARATPUR PAWAN KUNJ COLONY WARD N024 KAMAN Bharatpur Rajasthan    8387872670  1647  Active  05-05-2015    80.63  4.78 
226 2073 Pankaj Kumar 2014-Aksh-BHARATPUR GOPALGARH PAHARI BHARATPUR RAJASTHAN    9828551252  196  Active  05-05-2015    32.42  54.51 
227 2095 Dhramvir Singh 2014-Aksh-BHARATPUR ATAL SEWA KENDRA FULWARA THE. BHARATPUR Dist Bharatpur Rajasthan    8094802622  Active  06-05-2015    66.07  0.00 
228 2096 Arun Singh 2014-Aksh-BHARATPUR ATAL SEWA KENRDAR NEWARA THE. WEIR BHARATPUR RAJASTHAN    9001686769  1166  Active  06-05-2015    .3  1262.61 
229 2098 Shree Ram 2014-Aksh-BHARATPUR ATAL SEWA KENDRA SABORA THE. KUMHER Bharatpur Rajasthan    9929169030  1337  Active  06-05-2015    889.53  593.04 
230 2099 Radharaman Sharma 2014-Aksh-BHARATPUR ATAL SEWA KENDRA PARAUA THE.RUPWAS Bharatpur Rajasthan    9887196436  486  Active  06-05-2015    -.43  3735.54 
231 2100 Gopal Prasad 2014-Aksh-BHARATPUR ATAL SEWA KENDRA GOVINDPURA WEIR BHARATPUR RAJASTHAN    8696367636  1285  Active  06-05-2015    3.67  899.13 
232 2132 Bhupendra Singh 2014-Aksh-BHARATPUR DEEP COMPUTER CENTRE PAHUA THE. KUMHER, Bharatpur    9828815751  1585  Active  14-05-2015    4.98  1846.08 
233 2133 Pankaj Agarwal 2014-Aksh-BHARATPUR PURANI ANAJ MANDI WEIR Bharatpur Rajasthan    9461966250  Active  14-05-2015    .42  291.74 
234 2135 Anil Kumar 2014-Aksh-BHARATPUR ATAL SEWA KENDRA BIDIYARI TEH. BAYANA BHARATPUR RAJASTHAN    9414226716  Active  14-05-2015    7.25  8.80 
235 2144 Roopkishor Yadav 2014-Aksh-BHARATPUR Atal Seva Kendra Berro Nagar Bharatpur Rajasthan    9799180017  570  Active  20-05-2015    587.87  2046.95 
236 2145 Surjeet Singh 2014-Aksh-BHARATPUR ATAL SEWA KENDRA SAHSAN THE. PAHARI BHARATPUR RAJASTHAN    8441058009  1070  Active  20-05-2015    825.02  76.52 
237 2146 Fareed Khan 2014-Aksh-BHARATPUR 115 JATAV MOHALLA MUDIYA THE. NAGAR BHARATPUR RAJASTHAN    9587727320  35  Active  20-05-2015    200.6  258.26 
238 2147 Akhlesh Kumar Sharma 2014-Aksh-BHARATPUR ATAL SEWA KENDRA JAGGIVANPUR THE. WEIR BHARATPUR RAJASTHAN    9950251165  157  Active  20-05-2015    29.18  153.04 
239 2149 Vinod Kumar Sain 2014-Aksh-BHARATPUR ATAL SEWA KENDRA MAINAPURA TEH. BHUSAWAR BHARATPUR RAJASTHAN    9549586750  82  Active  20-05-2015    412.37  699.36 
240 2160 Jyoti Gupta 2014-Aksh-BHARATPUR CM PRINTERS EMITRA CENTRE BHARATPUR RAJASTHAN    9166834100  443  Active  26-05-2015    .98  55.00 
241 2164 Arun Kumar 2014-Aksh-BHARATPUR INFRONT OF PNB BANK DEEG ROAD BHARATPUR Rajasthan    9887887202  462  Active  26-05-2015    624.13  366.35 
242 2168 Rajkumar 2014-Aksh-BHARATPUR Gram Panchayat LAKHAN THESILKUMHER, Bharatpur    9983684578  63  Active  26-05-2015    -.85  306.09 
243 2174 Amit Chawla 2014-Aksh-BHARATPUR INFRONT OF SDM COURT KAMAN BHARATPUR RAJASTHAN    9610376376  Active  27-05-2015    14.73  0.00 
244 2176 Bhupendra Kumar Dixit 2014-Aksh-BHARATPUR GANDHI NAGAR ROAD SEWAR ROAD BHARATPUR RAJASTHAN    9887503135  667  Active  27-05-2015    .94  508.06 
245 2258 Balram Yadav 2014-Aksh-BHARATPUR CHURI BAZAR TEH. NAGAR BHARATPUR    9352777935  1361  Active  10-06-2015    .05  662.87 
246 2261 Iliyas Khan 2014-Aksh-BHARATPUR ATAL SEWA KENDRA TODA THESIL DEEG    9772391011  10546  Active  10-06-2015    -.11  975.65 
247 2265 Satyendra Kumar 2014-Aksh-BHARATPUR Vpo Sikri Teh Nagar Bharatpur    9413994113  92  Active  15-06-2015    .22  112.87 
248 2290 Samsuddin 2014-Aksh-BHARATPUR Viil- Jhantli Teh. Nagar Dist. Bhartpur Rajasthan    7665913436  1592  Active  18-06-2015    56.38  28.70 
249 2302 Dharm Singh 2014-Aksh-BHARATPUR SUNDRAWALI THESIL NAGAR BHARATPUR RAJASTHAN    9887586072  8620  Active  20-06-2015    .26  813.04 
250 2303 Shalini Singh 2014-Aksh-BHARATPUR SUNDRAWALI THESIL NAGAR BHARATPUR RAJASTHAN    8742060787  Active  20-06-2015    1074.25  0.00 
251 2304 Chet Ram 2014-Aksh-BHARATPUR NEAR BUS STAND KHOH TEHSIL DEEG BHARATPUR    9928272289  38  Active  20-06-2015    19.77  239.13 
252 2306 Ramavatar 2014-Aksh-BHARATPUR KHORKI ROAD TEHSIL NAGAR BHARATPUR RAJASTHAN    9571765235  916  Active  20-06-2015    779.56 
253 2307 Santosh Kumar 2014-Aksh-BHARATPUR MAIN MARKET SEWAR BHARATPUR RAJASTHAN    9887002180  1788  Active  20-06-2015    .27  1300.87 
254 2308 Arun Kumar Jain 2014-Aksh-BHARATPUR BUDH KI HAAT BHARATPUR    9782505757  565  Active  20-06-2015    56.73  1028.26 
255 2309 Meghraj 2014-Aksh-BHARATPUR NEAR SDM OFFICE BHUS AWAR BHARATPUR RAJASTHAN   8094670022  1328  Active  20-06-2015    4.67  1944.68 
256 2312 Navneet Kumar 2014-Aksh-BHARATPUR GLOBAL EMITRA VILL.SAIDPURA TESIL RUPWAS BHARATPUR    9414694403  306  Active  23-06-2015    313.5  19.13 
257 2314 Sanju Sharma 2014-Aksh-BHARATPUR PAI BAGH, BHARATPUR    9461867091  869  Active  27-06-2015    100.86  1736.18 
258 2326 Ravi Kumar 2014-Aksh-BHARATPUR Kaman Bharatpur Rajasthan    7891212512  543  Active  03-07-2015    176.54  0.00 
259 2327 Babli Arya 2014-Aksh-BHARATPUR SAINI MOHALLA KUMHER GATE BHARATPUR RAJASTHAN    8003230758  812  Active  03-07-2015    41.85  299.49 
260 2363 Lokesh Kumar Sharma 2014-Aksh-BHARATPUR NEAR SBI BANK , HINDOUN ROAD   BHUSAWAR , BHARATPUR RAJASTHAN undefined  8058681832  1655  Active  24-07-2015    16.03  301.30 
261 2364 Tarun Dayal Katara 2014-Aksh-BHARATPUR JASWANT NAGAR NEAR JASWANT SCHOOL BHARATPUR RAJASTHAN    9414945210  Active  24-07-2015    277.41  0.00 
262 2370 Akeel Ahmed 2014-Aksh-BHARATPUR Tehsil CampusNagar,Bharatpur    9982090666  261  Active  24-07-2015    .32  1406.09 
263 2374 Vishesh Kumar Sharma 2014-Aksh-BHARATPUR NEAR BHUMIYA BURJ GOPINAAT MAUHLLA KAMAN BHARATPUR RAJASTHAN    7891868653  881  Active  24-07-2015    1.7  215.22 
264 2375 Narendra 2014-Aksh-BHARATPUR MAIN ROAD UCCHAIN THESIL RUPBAS BHARATPUR RAJASTHAN    8952963617  290  Active  24-07-2015    1890.35  267.83 
265 2376 Harveer Singh 2014-Aksh-BHARATPUR ATAL SEWA KENDRA GAHLAU TEH RUPBAS BHARATPUR RAJASTHAN    7665861616  415  Active  24-07-2015    511.78  28.70 
266 2378 Aksh Optifibre Limired 2014-Aksh-BHARATPUR VARDHMAN MAHAVEER  OPEN UNIVERSITY BHARATPUR   9782179998  804  Active  27-07-2015    246.99  265.91 
267 2393 Rakesh Kumar Garg 2014-Aksh-BHARATPUR D-26 SHOPING CENTER JAWAHAR NAGAR  BHARATPUR RAJASTHAN  9352777798  Active  04-08-2015    .62  34.20 
268 2397 Mukand Bihari 2014-Aksh-BHARATPUR CITY SCHOOL KE PASS BAPU BAZAR NAGAR BHARATPUR RAJASTHAN    9024564343  518  Active  05-08-2015    19.89  1592.61 
269 2399 Ramesh Chand Jha 2014-Aksh-BHARATPUR NEEM KA NEECHE GUD KI MANDI KUMHER BHARATPUR RAJASTHAN    9782514178  1645  Active  05-08-2015    579.84  306.91 
270 2430 Pawan Kumar 2014-Aksh-BHARATPUR ATAL SEWA KENDRA KURKA THE. RUPBAS BHARATPUR    9785135761  37  Active  10-08-2015    .04  387.39 
271 2431 Asad Malik 2014-Aksh-BHARATPUR ATAL SEWA KENDRA KAKRALA THE. NAGAR BHARATPUR    9887669070  Active  10-08-2015    .08  0.00 
272 2432 Ram Ratan Kaushik 2014-Aksh-BHARATPUR EMPLOYEMENT OFFICE BHARATPUR RAJASTHAN    9672900243  225  Active  10-08-2015    304.6  4132.18 
273 2454 MANOJ KUMAR 2014-Aksh-BHARATPUR Village Uncha Nagla Post Behnera Bharatpur  9001708405  174  Active  25-08-2015    .07  0.00 
274 2467 Rakesh Tiwari 2014-Aksh-BHARATPUR SAUNALI EMITRA CENTRE BRAHMAWAD THESIL BAYANA BHARATPUR RAJASTHAN    8003603730  379  Active  27-08-2015    150.21  0.00 
275 2496 Subhash Singh 2014-Aksh-BHARATPUR ATAL SEWA CENTRE MADARPUR BHARATPUR RAJASTHAN    9001004584  1511  Active  01-09-2015    203.79  114.78 
276 2500 Praveen Kumar Jangid 2014-Aksh-BHARATPUR MAINAPURA THESIL BHUSAWAR WEIR BHARATPUR RAJASTHAN    8058947094  1775  Active  03-09-2015    -.19  0.00 
277 2501 Bhagawan Swaroop Pandey 2014-Aksh-BHARATPUR ATAL SEWA KENDRA WEIR BHARATPUR RAJASTHAN    8829834999  680  Active  03-09-2015    .09  999.56 
278 2516 Vijay Singh 2014-Aksh-BHARATPUR VIJAY E-MITRA NEAR MAIN GATE THANA NADBAI BHARATPUR    9782319241  819  Active  11-09-2015    .99  2473.56 
279 2519 Rajesh Singh 2014-Aksh-BHARATPUR RAJESH EMITRA CENTRE BHUSAWAR BHARATPUR RAJASTHAN    9667230074  157  Active  11-09-2015    .45  133.91 
280 2525 Aksh Optifibre Limited 2014-Aksh-BHARATPUR A.EN. OFFICE (O&M), BAYANA BHARATPUR    9414485885  10  Active  16-09-2015    .41  9.57 
281 2526 Jagveer Singh 2014-Aksh-BHARATPUR PARUL EMITRACENTRE KATARA NADBAI BHARATPUR RAJASTHAN    8384961669  2314  Active  17-09-2015    754.08  401.74 
282 2528 Bhuvnesh Katara 2014-Aksh-BHARATPUR Dahina Ganv, GP Dahina Ganv, PS Roopwas    8432325507  1390  Active  18-09-2015    377.99  86.09 
283 2530 Rohit Barhguzar 2014-Aksh-BHARATPUR ROHIT EMITRA NEAR SBI BANK STATION ROAD BAYANA BHARATPUR    9783878131  1506  Active  28-09-2015    54.68  0.00 
284 2531 Vipin Kumar Jain 2014-Aksh-BHARATPUR SARAFA BAZAR JUREHRA TEH.- KAMA DIST.- BHARATPUR RAJASTHAN    9414716155  3321  Active  29-09-2015    34.26  744.89 
285 2552 Krishna Kant 2014-Aksh-BHARATPUR KRISHI TAYARS KE PASS DEEG ROAD BHARATPUR    9024281316  377  Active  01-10-2015    .46  405.80 
286 2582 Yogesh Kumar 2014-Aksh-BHARATPUR SABLANA TEHSIL KAMAN BHARATPUR RAJASTHAN    9057464748  616  Active  14-10-2015    8.58  373.04 
287 2583 Sushila Agrawal 2014-Aksh-BHARATPUR COURT CAMPAS BHARATPUR RAJASTHAN    9461033105  Active  14-10-2015    130.52  0.00 
288 2588 Dal Chand 2014-Aksh-BHARATPUR NEAR PANCHYAT KE PASS SIKRI BHARATPUR RAJASTHAN    9672135624  336  Active  16-10-2015    504.06  402.46 
289 2589 Bhoori Singh 2014-Aksh-BHARATPUR MUDHERA ROOPWAS BHARATPUR    9610041014  808  Active  17-10-2015    492.07  234.35 
290 2601 Kavishwar Kant 2014-Aksh-BHARATPUR DEVRAJ EMITRA COMPUTER CENTRE MATHURA JAIPUR BAIPASS BHARATPUR    8386909066  1602  Active  28-10-2015    9.24  468.70 
291 2603 Deepak Garg 2014-Aksh-BHARATPUR MAIN MARKET ROOPWAS BHARATPUR RAJASTHAN    9549786858  1925  Active  28-10-2015    .44  3810.78 
292 2605 Hemant Kumar Jain 2014-Aksh-BHARATPUR NEAR HANUMAN MANDIR GOPALGARH BHARATPUR    9667004985  1314  Active  28-10-2015    37.7  816.87 
293 2608 Atar Singh 2014-Aksh-BHARATPUR ATAL SEVA KENDRA JAISHRI TEH. NAGAR BHARATPUR    9983740637  Active  30-10-2015    8537.64  0.00 
294 2613 Avinesh Garg 2014-Aksh-BHARATPUR B- 93 SUBHASH NAGAR BHARATPUR    9694545963  23707  Active  02-11-2015    .94  489.98 
295 2638 Lokesh Baswada 2014-Aksh-BHARATPUR MSJ COLLAGE KE SAMNE BHARATPUR    9636841153  6045  Active  07-11-2015    .31  52.61 
296 2639 Surendra Singh 2014-Aksh-BHARATPUR NEAR BUS STAND KALSARA TEH. BAYANA BHARATPUR    8502881401  Active  07-11-2015    1212.45  0.00 
297 2645 Vishnu Kumar Sharma 2014-Aksh-BHARATPUR ATAL SEWA KENDR PALI DANG TH. BAYANA BHARATPUR RAJASTHAN    8239531975  16  Active  20-11-2015    234.73  430.43 
298 2720 Artee Kumari 2014-Aksh-BHARATPUR GAYATRI PHOTO STATE COLLECTRECT ROAD BHARATPUR    7742507865  363  Active  09-12-2015    230.13  93.74 
299 2722 Praveen Kumar 2014-Aksh-BHARATPUR PRAVEEN E-MITRA NEW PUSHPVATIKA COLONY BHARATPUR    9414980248  484  Active  09-12-2015    5.94  235.06 
300 2723 Shahid Khan 2014-Aksh-BHARATPUR NEAR KISAN BHAWAN DEEG ROAD BHARATPUR    9785989270  96  Active  09-12-2015    7.98  0.00 
301 2724 Neeraj Saini 2014-Aksh-BHARATPUR KRISHNA E-MITRA SURAJPOLE GATE BHARATPUR    7733869060  30  Active  09-12-2015    1.67  836.72 
302 2749 Kamal Dass 2014-Aksh-BHARATPUR INDRA NAGAR NALE KE PASS BHARATPUR    9785180936  464  Active  19-12-2015    .7  850.35 
303 2751 Devki Dixit 2014-Aksh-BHARATPUR KATARA MARKET RUPBAS BHARATPUR    8387943416  1713  Active  22-12-2015    1512.95  0.00 
304 2752 Banay Singh 2014-Aksh-BHARATPUR HARE KRISHNA EMITRA MAHAHADPURA TEHSIL BAYANA Bharatpur    9982322322  277  Active  22-12-2015    19.56  0.00 
305 2753 Peetam Singh Saini 2014-Aksh-BHARATPUR BHARTI EMITRA CENTRE NEAR TEHSIL BHUSAWAR BHARATPUR    8502805851  1835  Active  22-12-2015    41.72  6556.94 
306 2789 Dilawer Khan 2014-Aksh-BHARATPUR KHERLI GUMANI TEH. KAMAN DIST.- BHARATPUR RAJASTHAN    8502079191  Active  05-01-2016    1720.63  0.00 
307 2810 Hakim Singh 2014-Aksh-BHARATPUR Atal Sewa Kendra Lahachorakalan Bayana Bharatpur    9057616307  318  Active  06-01-2016    600.07  698.26 
308 2811 Ravi Katheriya 2014-Aksh-BHARATPUR Saksham E-Mitra Centre, Jaghina Gate  Gopal Garh, Bharatpur undefined  7062452805  2031  Active  06-01-2016    .64  348.65 
309 2812 Vishnu Sharma 2014-Aksh-BHARATPUR LAVANIYA E-MITRA CENTRE, SEWAR FORT KE SAMENE  SEWARVROAD, BHARATPUR undefined  8947921593  280  Active  06-01-2016    73.84  878.09 
310 2814 Jeetendra Singh 2014-Aksh-BHARATPUR OM - SHAI E-MITRA CENTRE, V- RARAH  TEH. - KUMHER, BHARATPUR undefined  9680990299  1733  Active  06-01-2016    .29  1889.13 
311 2815 Prasoon Singhal 2014-Aksh-BHARATPUR BAUJI TELECOME & E-MITRA CENTRE SURAJPOLE CHAURAHA GOPAL GARH , BHARATPUR    8559826434  1939  Active  06-01-2016    .82  225.26 
312 2862 Asjad Khan 2014-Aksh-BHARATPUR ASJAD EMITRA CENTRE SIKRI VILLAGE BHUHAPUR THE. NAGAR    8239103850  Active  21-01-2016    157.87  0.11 
313 2885 Neeraj Kumar 2014-Aksh-BHARATPUR BAROLICHHAR TEH. NADBAI (PAY POINT)Bharatpur     9660985921  Active  30-01-2016    3.68  0.00 
314 2890 Devendra Kumar 2014-Aksh-BHARATPUR ANKIT PHOTO STATE GAYATRI COLLONY NADBAI Bharatpur    8947841656  Active  30-01-2016    11  0.00 
315 2922 Soop Ram Jatav 2014-Aksh-BHARATPUR Paypoint PASOPA Deegbharatpur     9001596884  Active  04-02-2016    1.9  0.00 
316 2923 Naresh Kumar 2014-Aksh-BHARATPUR Paypoint BELARA KALA TEHSIL KUMHER Bharatpur     9413995932  Active  04-02-2016    17.69  0.00 
317 2924 Ram Singh 2014-Aksh-BHARATPUR CHULERA TEHSIL DEEG Bharatpur     8503085433  Active  04-02-2016    .95  0.00 
318 2927 Narendra Singh 2014-Aksh-BHARATPUR Pay Point BEDHAM TEHSIL DEEG Bharatpur     8561067043  Active  04-02-2016    0.00 
319 2932 Taiyyab Khan 2014-Aksh-BHARATPUR NEAR MASJID, GARHI MEWAT  BEDHAM, BHARATUR undefined  9610299014  Active  04-02-2016    1.85  0.00 
320 2934 Pramod Kumar 2014-Aksh-BHARATPUR VILLAGE - GIRSE, TEHSIL - DEEG  BHARATPUR   9950101060  Active  04-02-2016    .84  0.00 
321 2949 Ravi Lawaniya 2014-Aksh-BHARATPUR GOVERDHAN GATE, BHARATPUR    9667420119  Active  05-02-2016    163.24  16.50 
322 2959 Vipin Bansal 2014-Aksh-BHARATPUR Paypoint KHERIA PUROHIT SONGAON DEEG BHARATPUR    9024484998  Active  09-02-2016    0.00 
323 2960 Jeetendra Kumar 2014-Aksh-BHARATPUR Pay Point Shripur,Deeg Bharatpur    8058334322  Active  09-02-2016    88.06  0.00 
324 2961 Dhanesh Kumar 2014-Aksh-BHARATPUR EMITRA PAYPOINT SINSINI, BHARATPUR    9983301011  Active  09-02-2016    0.00 
325 2962 Surendra Singh 2014-Aksh-BHARATPUR EMITRA PAYPOINT KHEMRA BHARATPUR    9828434242  Active  09-02-2016    0.00 
326 2963 Baboo Lal 2014-Aksh-BHARATPUR EMITRA PAYPOINT UMRA, DEEG  BHARATPUR    9460740002  Active  09-02-2016    2.95  0.00 
327 2964 Ajay Singh 2014-Aksh-BHARATPUR EMITRA PAYPOINT SUKHAWALI, BHARATPUR    9414718383  Active  09-02-2016    0.00 
328 2965 Rinku Kumar 2014-Aksh-BHARATPUR EMITRA PAYPOINT VILLAGE - TUHIYA, TYONGA  BHARATPUR   8058561420  Active  09-02-2016    0.00 
329 2966 Asjad Khan 2014-Aksh-BHARATPUR Emitra Paypoint BHUAPUR GARHI TEHSIL NAGAR Bharatpur     9529709046  Active  09-02-2016    0.00 
330 2967 Manoj Kumar Saini 2014-Aksh-BHARATPUR EMITRA PAYPOINT SAINI MOHALLA, BEWAR  HALENA, BHARATPUR undefined  9660253382  Active  09-02-2016    0.00 
331 2968 Rajesh Kumar Gupta 2014-Aksh-BHARATPUR EMITRA PAYPOINT VILLAGE - AJROUNDA, TEHSIL - WEIR  BHARATPUR    8290136831  Active  09-02-2016    .95  0.00 
332 2969 Sushil Kumar 2014-Aksh-BHARATPUR EMITRA PAYPOINT BANI KUMHAR, BHARATPUR     9587999024  Active  09-02-2016    0.00 
333 2970 Pramod Kumar Sharma 2014-Aksh-BHARATPUR EMITRA Paypoint BAI,WEIR  BHARATPUR   9414526914  Active  09-02-2016    0.00 
334 2971 Brijesh Kumar 2014-Aksh-BHARATPUR EMITRA PAYPOINT KUTAKPUR, CHIRAWALMALI  NAGAR, BHARATPUR  undefined  8058976432  Active  09-02-2016    0.00 
335 2972 Gopal Prasad 2014-Aksh-BHARATPUR EMITRA PAYPOINT GOVINDPURA GP MUHARI THE. WEIR Bharatpur     8696367635  Active  09-02-2016    7.69  0.00 
336 2973 Jaswant Singh 2014-Aksh-BHARATPUR EMITRA PAYPOINT KASODA GP MADAHONI THE. BHARATPUR    9001649139  Active  09-02-2016    7.97  0.00 
337 2974 Kuldep Singh 2014-Aksh-BHARATPUR EMITRA PAYPOINT GANGROLI POST HISHAMDA TEH WEIR Bharatpur     9667234915  Active  09-02-2016    .9  0.00 
338 2975 Bharat Singh 2014-Aksh-BHARATPUR EMITRA PAYPOINT NAHREPUR GP SIRAS TEHSIL WEIR BHARATPUR    9660347922  Active  09-02-2016    7.8  0.00 
339 2976 Manoj Kumar 2014-Aksh-BHARATPUR EMITRA PAYOINT SHYAMDHAK, BAROLI CHAUTH  DEEG, BHARATPUR undefined  9413309325  Active  09-02-2016    0.00 
340 2977 Hariom 2014-Aksh-BHARATPUR EMITRA PAYPOINT GUHANA, DEEG  BHARATPUR   9414449940  Active  09-02-2016    0.00 
341 2978 Sumit Singh 2014-Aksh-BHARATPUR EMITRA PAYPOINT Bahnera Sewar Bharatpur     7297895400  Active  09-02-2016    71.72  0.00 
342 2979 Vipin Kumar 2014-Aksh-BHARATPUR EMITRA PAYPOINT SEHU GP PADMADRA TEH. DEEG Bharatpur     9694805536  Active  09-02-2016    .95  0.00 
343 2980 Nagendra Singh 2014-Aksh-BHARATPUR EMITRA PAYPOINT NARENA CHOTH GP PASTA TEH. DEEG Bharatpur     9785350540  Active  09-02-2016    .95  0.00 
344 2981 Kehar Singh 2014-Aksh-BHARATPUR EMITRA PAYPOINT SHAYPUR GP BARAI TEH. DEEG Bharatpur     9887327743  Active  09-02-2016    .84  0.00 
345 2986 Indrajeet Boudh 2014-Aksh-BHARATPUR EMITRA PAYPOINT JHEETREDI  GP SEMLA KALAN TEH. NAGAR Bharatpur    7891847732  Active  09-02-2016    0.00 
346 2987 Nem Singh 2014-Aksh-BHARATPUR EMITRA PAYPOINT  PIRAKA GP SAIMLAKALAN TEH. NAGAR Bharatpur    9024459580  Active  09-02-2016    1.79  0.00 
347 2988 Prem Prakash 2014-Aksh-BHARATPUR POOLICE THANE KE GATE KE PASS TEHSIL NADBAI Bharatpur    8947841512  1375  Active  10-02-2016    34.02  638.17 
348 2989 Khem Chand Sharma 2014-Aksh-BHARATPUR ATAL SEVA KENDRA, SOGAR  KUMHER, BHARATPUR undefined  9782149599  Active  10-02-2016    0.00 
349 2990 Sonu Bansal 2014-Aksh-BHARATPUR VILLAGE And POST - SABORA, TEHSIL - KUMHER  DISTRICT- BHARATPUR   9785537341  1630  Active  10-02-2016    334.38  57.39 
350 2992 Vinod Kumar Agrawal 2014-Aksh-BHARATPUR UNCLE G EMITRA A-93RANJEET NAGAR BHARATPUR    9413113575  835  Active  10-02-2016    529.69  275.48 
351 2993 Kshitij Singh 2014-Aksh-BHARATPUR EMITRA Paypoint MADARPUR, CHIKSANA  SEWAR, BHARATPUR undefined  8946830750  Active  11-02-2016    0.00 
352 2994 Sahil Khan 2014-Aksh-BHARATPUR EMITRA PAYPOINT BHUTA GP MUDIYA TEH. NAGAR    9785709285  Active  11-02-2016    0.00 
353 2995 Rasid Khan 2014-Aksh-BHARATPUR EMITRA PAYPOINT BALKHEDHA GP KHKHABALI TEH. NAGAR Bharatpur     9828254582  Active  11-02-2016    .9  0.00 
354 2996 Soran 2014-Aksh-BHARATPUR EMITRA PAYPOINT NARANA GP BANDHA CHOTH TEH. DEEG Bharatpur     9214065753  Active  11-02-2016    0.00 
355 2997 Anil Goyam 2014-Aksh-BHARATPUR EMITRA PAYPOINT ROJKI GP PENDKA TEH. NAGAR Bharatpur     9694896625  Active  11-02-2016    0.00 
356 2998 Ajab Singh Beekarwar 2014-Aksh-BHARATPUR EMITRA PAYPOINT MAI KA NAGLA GP MAI TEH. NADBAI Bharatpur     9929499299  Active  11-02-2016    34.71  0.00 
357 2999 Ankur Thanua 2014-Aksh-BHARATPUR EMITRA PAYPOINT NAUHGAYA , HATHENI  SEWAR, BHARATPUR undefined  9414208208  Active  11-02-2016    0.00 
358 3017 Satnam Singh Sandhu 2014-Aksh-BHARATPUR EMITRA Paypoint BARRPURA , AGHAPUR  CHIKSANA, SEWAR  BHARATPUR  9694565465  Active  13-02-2016    0.00 
359 3022 Ashwani Singh 2014-Aksh-BHARATPUR EMITRA PAY POINT VIJAY NAGAR, RUNDH HELAK  KUMHER, BHARATPUR undefined  9829159955  Active  15-02-2016    0.00 
360 3023 Siddharth Agre 2014-Aksh-BHARATPUR Emitra Paypoint Vijaynagar Khumer Bharatpur Rajasthan     9694837688  Active  15-02-2016    0.00 
361 3024 Ram Singh 2014-Aksh-BHARATPUR EMITRA PAY POINT GHATOLI POST KHANSURJAPUR TEH. RUPBAS BHARATPUR    9929404345  Active  15-02-2016    .9  0.00 
362 3025 Chandra Prakash Yadav 2014-Aksh-BHARATPUR EMITRA PAY POINT MAHCHAULI PIPLA BLOCK SEWAR BHARATPUR    8769060087  427  Active  15-02-2016    224.17  373.04 
363 3029 Neeru Singh 2014-Aksh-BHARATPUR EMITRA PAY POINT BHAHRABALI GP BHESHA TEH. RUPBAS BHARATPUR    9166676846  Active  16-02-2016    .95  0.00 
364 3030 Ravi Kumar 2014-Aksh-BHARATPUR EMITRA PAY POINT KARMUKABAAS GP LEHRSAR TEH. KAMAN BHARATPUR    7891212511  Active  16-02-2016    0.00 
365 3032 Manoj Kumar 2014-Aksh-BHARATPUR EMITRA PAY POINT LODHAHEDI GP GHANKAR TEH. NAGAR BHARATPUR    8058260315  Active  16-02-2016    0.00 
366 3034 Narendra Kumar 2014-Aksh-BHARATPUR EMITRA PAY POINT JATOLI GHANA GP BACHAMDI SEWAR BHARATPUR    9461841710  Active  16-02-2016    0.00 
367 3035 Chhote Lal 2014-Aksh-BHARATPUR EMITRA PAY POINT SUPAWAS GP RETHOTI TEH. KUMHER BHARATPUR    9636282236  Active  16-02-2016    0.00 
368 3036 Ramveer Gurjar 2014-Aksh-BHARATPUR EMITRA PAY POINT RANOTA GP MORAKA TEH. NAGAR BHARATPUR    9785438001  Active  16-02-2016    0.00 
369 3037 Ramchand 2014-Aksh-BHARATPUR EMITRA PAY POINT RAVIDASPURA GP GANGABAK TEH NAGAR BHARATPUR     9929797614  Active  16-02-2016    0.00 
370 3038 Ramavtar Gurjar 2014-Aksh-BHARATPUR EMITRA PAY POINT GHATA GP PALLA TEH. KAMAN BHARATPUR    9468682522  Active  16-02-2016    .95  0.00 
371 3039 Mohammad Irashad 2014-Aksh-BHARATPUR EMITRA PAY POINT ANGRAWALI GP BILONG TEH. KAMAN BHARATPUR    9828282183  Active  16-02-2016    0.00 
372 3040 Lakhan Singh 2014-Aksh-BHARATPUR EMITRA PAY POINT JURHARI GP PAAI TEH. KAMAN BHARATPUR    9887539321  Active  16-02-2016    0.00 
373 3041 Narayan Singh 2014-Aksh-BHARATPUR Emitra Pay Point Badhipur Gp Satwas Teh. Kaman Bharatpur    7792951767  Active  16-02-2016    34.16  0.00 
374 3042 Rajesh Kumar 2014-Aksh-BHARATPUR EMITRA PAY POINT BAJHRA GP SUNHERA TEH. KAMAN BHARATPUR    9927238301  Active  16-02-2016    88.87  0.00 
375 3058 Bachchu Singh 2014-Aksh-BHARATPUR NEAR GANDHI MANDIR, PANCHYAT SAMITI ROAD  BAYANA, BHARATPUR undefined  9414446200  1233  Active  17-02-2016    12.5  722.17 
376 3063 Jagdish Kumar 2014-Aksh-BHARATPUR EMITRA PAY POINT BADHRIPUR TEHSIL DEEG BHARATPUR    9694546972  Active  19-02-2016    0.00 
377 3064 Akash Agre 2014-Aksh-BHARATPUR EMITRA PAY POINT SATYAPURA, RUNDH HELAK  KUMHER , BHARATPUR undefined  9782123003  Active  19-02-2016    0.00 
378 3070 Mohammad Salim 2014-Aksh-BHARATPUR EMITRA PAYPOINT PEEPROLI SIKRI NAGHAR Bharatpur     8107165786  Active  23-02-2016    0.00 
379 3071 Ashok Kumar 2014-Aksh-BHARATPUR EMITRA PAY POINT BOOLKHERA KA BASS GP BOOLKHERA TEH. KAMAN     9950292638  Active  23-02-2016    0.00 
380 3110 Hakim Singh 2014-Aksh-BHARATPUR EMITRA PAY POINT AJNOULI GP LAHCHORAKALAN TEH. BAYANA BHARATPUR    7615999265  Active  01-03-2016    5.1  0.00 
381 3113 Rahul Kumar 2014-Aksh-BHARATPUR EMITRA PAY POINT KARBAN GP SUHARI TEH. BHUSAWAR BHARATPUR    9694772267  Active  01-03-2016    0.00 
382 3114 Sarpu Khan 2014-Aksh-BHARATPUR EMITRA PAY POINT RAYAPUR SUKETI GP PALKA TEH NAGAR BHARATPUR    8696530760  Active  01-03-2016    0.00 
383 3115 Govind Singh 2014-Aksh-BHARATPUR EMITRA PAY POINT MADANPUR GP DHADREN TEH. BAYANA BHARATPUR    8003062401  Active  01-03-2016    0.00 
384 3117 Rijwan Khan 2014-Aksh-BHARATPUR EMITRA PAY POINT RASULPUR GP KAKRALA TEH. NAGAR BHARATPUR    9982157989  Active  01-03-2016    0.00 
385 3119 Nyaj Mohammad 2014-Aksh-BHARATPUR Eemitra Pay Ponit Fathpur Kalan Nagar Bharatpur    9549890604  Active  01-03-2016    0.00 
386 3120 Bahadur Singh 2014-Aksh-BHARATPUR Emitra Pay Point Vill Hingota Deeg Bharatpur    9828713071  Active  01-03-2016    2155.5  0.00 
387 3152 Naval Singh 2014-Aksh-BHARATPUR VILLAGE - BAJHERA, POST - BACHHAMADI NOH  TEHSIL And DISTRICT - BHARATPUR   8233007554  366  Active  04-03-2016    .51  1430.00 
388 3153 Ravi Kumar 2014-Aksh-BHARATPUR Goga Ji E-mitra Ward no 20 Near Kathputali  Temple Mohalla Gopal Garh Bharatpur (Rajasthan)   8058573640  501  Active  04-03-2016    223.94  235.07 
389 3154 Mukesh Chaturvedi 2014-Aksh-BHARATPUR KANJOLI LINE BHARATPUR    9024718864  1010  Active  04-03-2016    .93  1592.61 
390 3155 Lukman Hakeeem 2014-Aksh-BHARATPUR VILL.DAYANAWAS POST KHOHRI TEHSIL NAGAR Bharatpur     9828485035  854  Active  04-03-2016    1000.29  707.82 
391 3156 Yadvendra Singh 2014-Aksh-BHARATPUR EMITRA PAY POINT MILKIPURA GP KHAGRI TEH. NADBAI BHARATPUR    7240724818  Active  04-03-2016    .58  0.00 
392 3157 Mukhiya Singh 2014-Aksh-BHARATPUR EMITRA PAY POINT BARABALI GP SONGAWON TEH. DEEG BHARATPUR    9660011940  Active  04-03-2016    261.75  0.00 
393 3158 Rajendra Singh 2014-Aksh-BHARATPUR EMITRA PAY POINT GULBANEE GP JAISHREE TEH. NAGAR BHARATPUR    9166177097  Active  04-03-2016    0.00 
394 3192 Mahesh Chand 2014-Aksh-BHARATPUR EMITRA PAYPOINT SANDUGAR GP PEPAL KEHDA TEH. PAHADI BHARATPUR    9983446060  Active  11-03-2016    0.00 
395 3193 Prakash Chand 2014-Aksh-BHARATPUR EMITRA PAY POINT MEHRAMPUR GP RAISHEES TEH. NADBAI BHARATPUR    9694206895  Active  11-03-2016    0.00 
396 3194 Santoshi Lal 2014-Aksh-BHARATPUR Emitra Pay Point UNDRA GP GUSYAARI TEH BHARATPUR    8947064553  Active  11-03-2016    .95  0.00 
397 3195 Narayan Singh 2014-Aksh-BHARATPUR RAJPOOT EMITRA INDRA COLONEY TEHSIL KAMAN Bharatpur     9680813030  401  Active  12-03-2016    415.7  38.26 
398 3196 Amit Kumar 2014-Aksh-BHARATPUR VILL & POST PEEPLA TEH BHARATPUR    8426960798  495  Active  12-03-2016    883.63  0.00 
399 3197 Jeetendra Kumar 2014-Aksh-BHARATPUR EMITRA PAY POINT JOGIPURA GP BAROLIRAAN TEH. NADBAI BHARATPUR    9694471104  Active  14-03-2016    0.00 
400 3198 Sagar Kirad 2014-Aksh-BHARATPUR EMITRA PAY POINT UNEAR GP ECHARA TEH. NADBAI BHARATPUR    8058300769  Active  14-03-2016    0.00 
401 3199 Sonu Rawat 2014-Aksh-BHARATPUR EMITRA PAY POINT SIKRORA GP SIKRORI TEH. KUMHER BHARATPUR    9785171759  Active  14-03-2016    0.00 
402 3200 Prakash Chand 2014-Aksh-BHARATPUR EMITRA PAY POINT JAHRLA GP BALABGARD TEH. WEIR BHARATPUR    9784958550  Active  14-03-2016    5.9  0.00 
403 3201 Sanjay Singh 2014-Aksh-BHARATPUR EMITRA PAY POINT LULHAARO GP PAHERSAR THE. NADBAI BHARATPUR    9413301358  Active  14-03-2016    0.00 
404 3202 Anil Singh 2014-Aksh-BHARATPUR EMITRA PAY POINT UDPURI GP SAADPURI TEH. NAGAR BHARATPUR    8440082546  Active  14-03-2016    0.00 
405 3203 Rinku Singh 2014-Aksh-BHARATPUR EMITRA PAY POINT VILLAGE - DIDWARI, Gram Panchayat -  TALPHARA TEHSIL - NAGAR  BHARATPUR  7690045154  Active  14-03-2016    0.00 
406 3204 Hargovind Singh 2014-Aksh-BHARATPUR Emitra Pay Point Village - Bailara, Gram Panchayat - Kedi Devi Singh  Tehsil - Nadbai, Bharatpur undefined  9785338413  Active  14-03-2016    22.32  0.00 
407 3205 Hemu Rawat 2014-Aksh-BHARATPUR EMITRA PAY POINT SITARA GP PALA TEH. KUMHER BHARATPUR    9983022353  Active  15-03-2016    0.00 
408 3206 Vijendra Singh 2014-Aksh-BHARATPUR Vill.-Higota Deeg Bharatpur Rajasthan     9928225945  2000  Active  15-03-2016    14.51  153.04 
409 3230 Rajesh Kumar 2014-Aksh-BHARATPUR RAJESH EMITRA CENTRE VIIL. &POST SUNHERA TH. KAMAN Bharatpur     9521192113  895  Active  22-03-2016    1021.16  23.91 
410 3232 Raj Kumar 2014-Aksh-BHARATPUR Vill. Sanwler Teh Pahari Dist Bharatpur    9610072407  Active  22-03-2016    0.00 
411 3233 Shiv Kumar 2014-Aksh-BHARATPUR Bapu Bazar Nagar Bharatpur    9414610952  1045  Active  22-03-2016    243.42  14424.32 
412 3241 Vijay Pal Singh 2014-Aksh-BHARATPUR EMITRA PAY POINT KEALURI GP RONIJA TEH. NADBAI BHARATPUR    9982130413  Active  22-03-2016    0.00 
413 3242 Shaheed 2014-Aksh-BHARATPUR EMITRA PAY POINT MOOTHUKA GP DIMARI TEH. PHADHI BHARATPUR    9783873062  Active  22-03-2016    0.00 
414 3303 Vishnu Kumar 2014-Aksh-BHARATPUR SAMOGAR TEHSIL BAYANA BHARATPUR    8386879606  Active  11-04-2016    59.25  0.00 
415 3348 Usaman 2014-Aksh-BHARATPUR Emitra Pay Point Targama, Gram Panchayat - Ghatri Weir  Bharatpur, Rajasthan undefined  9785563535  Active  14-04-2016    0.00 
416 3349 Haricharan Singh 2014-Aksh-BHARATPUR Emitra Pay Point Village Dhanipura, Gram Panchayat - Nayavas Nadbai  Bharatpur, Rajasthan undefined  7665178638  Active  14-04-2016    0.00 
417 3351 Narayan Singh 2014-Aksh-BHARATPUR EMITRA PAY POINT JHARKAI GP BHOUSINGATEH NADBAI BHARATPUR    8441957123  Active  14-04-2016    93.14  0.00 
418 3352 Faiji Khan 2014-Aksh-BHARATPUR EMITRA PAYPOINT CHANDUKADA NAGAR BHARATPUR     8107174788  Active  14-04-2016    0.00 
419 3355 Jagannath Sharma 2014-Aksh-BHARATPUR EMITRA PAY POINT KHOHARI DEEG, BHARATPUR  RAJASTHAN   9782074037  Active  14-04-2016    0.00 
420 3356 Chandra Prakash 2014-Aksh-BHARATPUR EMITRA PAY POINT CHAK CHEALUA GRAM  PANCHAYAT- FATEHPUR KALAN NAGAR, BHARATPUR   9667805875  Active  14-04-2016    0.00 
421 3357 Vinay Garg 2014-Aksh-BHARATPUR EMITRA PAY POINT ATARIPURA (PAY POINT) GRAM PANCHAYAT- BAROLI, WEIR  BHARATPUR,RAJASTHAN undefined  8441086608  Active  14-04-2016    0.00 
422 3418 Junaid Khan 2014-Aksh-BHARATPUR Emitra Pay Point Village - Khohra, Gram  Panchayat - Olanda Kaman. Bharatpur   9983855001  Active  27-04-2016    0.00 
423 3421 Pankaj Kumar 2014-Aksh-BHARATPUR JANGID E-MITRA CENTRE V-P LAITA MUDIA TEH. WEIR BHARATPUR    9549662601  193  Active  27-04-2016    1686.19  661.60 
424 3422 Girdhari Lal 2014-Aksh-BHARATPUR EMITRA PAY POINT BADHAKA GP ALAMSHA TEH. NAGAR BHARATPUR    9024997554  Active  27-04-2016    0.00 
425 3469 Krishan Kant Katara 2014-Aksh-BHARATPUR Mahalpur Kachhi, Dhahina Gaon  Rudawal, Roopwas  Bharatpur - 321402  9680163635  1630  Active  06-05-2016    334.78 
426 3475 Nagendra Kumar 2014-Aksh-BHARATPUR Ashi E-Mitra, Subhash Nagar  Bharatpur   9166376312  285  Active  10-05-2016    .43  38.26 
427 3492 Arsad 2014-Aksh-BHARATPUR Emitra Paypoint DUDAWAL GP DUDAWAL TEH. NAGAR Bharatpur Rajasthan     9929229003  Active  18-05-2016    0.00 
428 3493 Hari Singh 2014-Aksh-BHARATPUR EMITRA PAY POINT VILLAGE - GOBRA, Gram Panchayat- JHANGEERPUR  TEHSIL - NADBAI, BHARATPUR undefined  8290043324  Active  18-05-2016    0.00 
429 3517 Koushal Kumar 2014-Aksh-BHARATPUR Plot No. 55, 56 Tilak Nagar  Bharatpur   9460013498  1661  Active  24-05-2016    16.42  93.74 
430 3528 Gajendra Singh 2014-Aksh-BHARATPUR House No. - 44/560, Gandhi Nagar  Near Railway Colony, Bharatpur undefined  9610279875  203  Active  26-05-2016    3.56  22.00 
431 3531 Maneesh Kumar 2014-Aksh-BHARATPUR Atal Seva Kendra, Saheda  Kaman, Bharatpur undefined  8502987604  218  Active  27-05-2016    100.43 
432 3537 Sonu Singh 2014-Aksh-BHARATPUR Village- Naroli, Tehsil - Bayana  Bharatpur   9462927787  1860  Active  27-05-2016    66.96 
433 3539 Rohatash Singh 2014-Aksh-BHARATPUR Infront Of Arya Agencies, Shiv Nagar  Bharatpur   9667431175  Active  27-05-2016    0.00 
434 3580 Rahil 2014-Aksh-BHARATPUR SAHSAN PAHADI BHARATPUR    9785407856  Active  11-06-2016    0.00 
435 3581 Bharti Satija 2014-Aksh-BHARATPUR Kali Ji Bagihi Chauraha, Bharatpur    9001624927  64  Active  11-06-2016    10.28 
436 3583 Gopal Prasad Sahu 2014-Aksh-BHARATPUR Nala Bazar, Ward No. - 7  Kaman, Bharatpur undefined  8829800860  Active  11-06-2016    200  526.09 
437 3584 Dharmveer Singh 2014-Aksh-BHARATPUR Holy Mohalla, 4 Thok Vill. Post - Jaghina  Bharatpur   9461460292  304  Active  11-06-2016    11.00 
438 3599 Shyam Krishna Sharma 2014-Aksh-BHARATPUR OLD BUS STAND, NEAR RAJASTHAN GRAMIN BANK WEIR  WARD NO-10 WEIR BHARATPUR   9782192322  Active  18-06-2016    0.00 
439 3638 Ram Singh 2014-Aksh-BHARATPUR Village- Chulehra, Tehsil- Deeg  Bharatpur   1234567899  Active  04-07-2016    0.00 
440 3639 Prince Kumar Singhal 2014-Aksh-BHARATPUR Singhal Computers, Buddh Ki Hat  Bharatpur   7734909092  1221  Active  04-07-2016    216.17 
441 3640 Mohan Singh 2014-Aksh-BHARATPUR NEAR SURJEET SCHOOL PAIBAG BHARATPUR    9460012435  1965  Active  04-07-2016    33.48 
442 3641 Alam Ali 2014-Aksh-BHARATPUR Village - Sablana, Tehsil - Kaman  District - Bharatpur   9252525751  Active  04-07-2016    0.00 
443 3642 Mamta Gupta 2014-Aksh-BHARATPUR BANSI PAHAR PUR ROAD RUDAWAL BHARATPUR    9828941084  308  Active  04-07-2016    1605.04 
444 3643 Mamta Kumari 2014-Aksh-BHARATPUR Hijdon Ka Atta, Kumher Gate  Bharatpur    9460480429  1426  Active  04-07-2016    138.70 
445 3652 Ramveer Singh 2014-Aksh-BHARATPUR Emitra Pay Point Village - Gundgoan, Grampanchayat - Nandera Kaman  Bharatpur, Rajasthan undefined  8058045874  Active  05-07-2016    0.00 
446 3653 Pushpendra Singh 2014-Aksh-BHARATPUR Emitra Pay Point Village - Bikaru, Granmpanchayat - Akheghar Nadbai  Bharatpur, Rajasthan undefined  8239008232   Active  05-07-2016    0.00 
447 3654 Maharaj Singh 2014-Aksh-BHARATPUR Emitra Pay Point Village - Amar Singh Ka Bas  Grampanchayat- Basburja Nagar, Bharatpur   9772155981  Active  05-07-2016    0.00 
448 3655 Dharmendra Singh 2014-Aksh-BHARATPUR Emitra Pay Point Village - Raipur, Grampanchayat - Bhatpura Nagar  Bharatpur, Rajasthan undefined  8290150771  Active  05-07-2016    0.00 
449 3656 Maharaj Singh 2014-Aksh-BHARATPUR Emitra Pay Point Village And Post - Barauli Dhau, Tehsil - Kaman   Bharatpur, Rajasthan undefined  9929223200  Active  05-07-2016    0.00 
450 3686 Pokhan Singh 2014-Aksh-BHARATPUR PAHARSAR CHAURAHA SHAHPUR NADBAI Bharatpur Rajasthan     8769839328  Active  20-07-2016    0.00 
451 3687 Mayank Jain 2014-Aksh-BHARATPUR JAIN EMITRA CENTRE JAMA MASJID NAVEEN CITY SCHOOL BHARATPUR    8386962733  1264  Active  20-07-2016    21.28 
452 3688 Ravindra 2014-Aksh-BHARATPUR YASH E-MITRA CENTRA, V-KHADERA   P-KOOMA Th-BHARATPUR   9587171516  Active  20-07-2016    0.00 
453 814 Aqeela Parveen 2014-Comtech Institute of Technology-Bharatpur In Front of New  Tehsil Kaman Bharatpur  9001892350  281  Active  26-08-2014    .63  5062.86 
454 840 Amarjeet Singh 2014-Comtech Institute of Technology-Bharatpur V+P Sahasan  Tehsil - Pahari Disst. - Bharatpur  8503801959  Active  03-09-2014    -.39  0.00 
455 867 Sanjay Singh 2014-Comtech Institute of Technology-Bharatpur INFRONT OF STADIUM, JASWANT     9660718564  10646  Active  15-09-2014    .62  3658.69 
456 960 DEEPAK KUMAR 2014-Comtech Institute of Technology-Bharatpur Village-RUPBAS BLOCK -RUPBAS DIS- BHARATPUR  9549786858  75  Active  08-10-2014    34.61  86.09 
457 1053 Yogesh Kumar 2014-Comtech Institute of Technology-Bharatpur KALYAN MOHALLA WORD NO.15 KAMAN BHARTAPUR    9875114960  31  Active  21-11-2014    .85  860.25 
458 1067 Shiv Kuamr 2014-Comtech Institute of Technology-Bharatpur SHARMA COMPUTERS NEAR GEETA MANDIR, PAI BAGH BHARATPUR (RAJ.)  9530033717  Active  26-11-2014    .97  0.00 
459 1069 Ram Niwas Saini 2014-Comtech Institute of Technology-Bharatpur NEAR GOVT. HOSPITAL, BHUWASAR  DISTT- BHARATPUR   9587082198  1080  Active  26-11-2014    94.73  1468.26 
460 1108 Ravi Kumar Holker 2014-Comtech Institute of Technology-Bharatpur VILL-BORAI,TEHSIL-KUMHER DISTRICT-BHARATPUR   8952827211  1081  Active  10-12-2014    244.57  822.61 
461 1117 Rohit Sharma 2014-Comtech Institute of Technology-Bharatpur A - 270 Jawahar Nagar Bharatpur   9828844867  26  Active  15-12-2014    3.28  176.96 
462 1119 Jeetendra singh Dagur 2014-Comtech Institute of Technology-Bharatpur Vill -Purabai khera The - Bayana Dist - Bharatpur  9928690092  1736  Active  15-12-2014    291.34  466.11 
463 1123 Jeetu Goyal 2014-Comtech Institute of Technology-Bharatpur NAGAR ROAD, KOTWALI K SAMNE  DEEG, DISTT- BHARATPUR undefined  05641224021  986  Active  17-12-2014    54.39  573.91 
464 1237 Vishambar 2014-Comtech Institute of Technology-Bharatpur VILLAGE.POST.KHANUA TH.RUPBAS DIST.BHARTAPUR    9887622305  27  Active  29-12-2014    .21  172.17 
465 1457 Samim Khan 2014-Comtech Institute of Technology-Bharatpur Seekri Chak No. 1 Sikri Nagar Bharatpur    9929337831  406  Active  14-03-2015    -.85  90.87 
466 1484 Mukesh Chand 2014-Comtech Institute of Technology-Bharatpur Atal Seva Kendra Khemra Kalan    9694775375  18  Active  23-03-2015    351.32  0.00 
467 1514 Mohan Singh 2014-Comtech Institute of Technology-Bharatpur CHHONKAWADA BHUSWAR BHARATPUR    8385834352  27  Active  25-03-2015    100.7  95.65 
468 1515 Sonu Ram Saini 2014-Comtech Institute of Technology-Bharatpur OLD SABZI MANDI BHUSAWARBHARATPUR    9785004950  148  Active  25-03-2015    -.71  0.00 
469 1801 Akash Parewa 2014-Comtech Institute of Technology-Bharatpur Infront Of R.K Marbels Behind Pawan Auto Parts Bharatpur    8440901849  33  Active  06-04-2015    1.15  33.48 
470 1817 Ankit Kuntal 2014-Comtech Institute of Technology-Bharatpur G.P Talphara Tehsil Kumher Bharatpur    9785717239  Active  08-04-2015    80.67  0.00 
471 1851 Shokeen 2014-Comtech Institute of Technology-Bharatpur ATAL SEWA KENDRA , BAMANWARI, PAHADI BHARATPUR   BHARATPUR  7877919161  414  Active  14-04-2015    -.91  239.13 
472 1853 Omprakash 2014-Comtech Institute of Technology-Bharatpur V&P MAI, NADBAI  BHARATPUR   9001126308  391  Active  14-04-2015    6.85  652.21 
473 1855 Yogesh Kumar 2014-Comtech Institute of Technology-Bharatpur V&P IBRAHIMPUR, ROOPBAS  BHARATPUR   8058990788  15  Active  14-04-2015    737.24  76.52 
474 1963 Chhitar 2014-Comtech Institute of Technology-Bharatpur V&P MAI, NADBAI  BHARATPUR   9636674391  309  Active  20-04-2015    200.62  850.07 
475 2452 Tej Singh 2014-Comtech Institute of Technology-Bharatpur BARAULI RAN, NADBAI  BHARATPUR   9929996128  870  Active  24-08-2015    98.24  0.00 
476 2493 Bhagat Singh 2014-Comtech Institute of Technology-Bharatpur PAWAN KUNJ COLONY, KAMAN  BHARATPUR   9571816262  1021  Active  31-08-2015    .4  239.13 
477 2494 Dayachand 2014-Comtech Institute of Technology-Bharatpur INDROLI, CHHICHHARWADI  KAMAN, BHARATPUR undefined  8058248257  785  Active  31-08-2015    4165.15  0.00 
478 2566 Geetam Singh 2014-Comtech Institute of Technology-Bharatpur ROOPWAS, MILSVA  KHERIYA BILLOCH   9001115145  56  Active  08-10-2015    100.9  191.30 
479 2609 Sunil Kumar 2014-Comtech Institute of Technology-Bharatpur B-NARAYAN GATE DHOBI MOHALLA BHARATPUR    8946908790  2003  Active  30-10-2015    441.35  169.78 
480 2610 Bharat Saini 2014-Comtech Institute of Technology-Bharatpur PURANA BUY PASS ROAD NAGAR BHARATPUR    8562010240  1734  Active  30-10-2015    1038.17  4.78 
481 2611 Dashrath 2014-Comtech Institute of Technology-Bharatpur RUDABAL ROAD JUHGLA PATTI,UCHCHAIN  RUPBAS BHARATPUR    8504085436  1661  Active  30-10-2015    .61  703.04 
482 2629 Gulshan Singal 2014-Comtech Institute of Technology-Bharatpur B.NARAYAN GATE,ATAL BANDH ROAD BHARATPUR   7791033074  1723  Active  05-11-2015    7.54  181.74 
483 2630 Hitesh Kumar 2014-Comtech Institute of Technology-Bharatpur WARD NO. 19, SONPURA TILAK NAGAR BHARATPUR   9587827377  1388  Active  05-11-2015    .01  1344.87 
484 2631 Tulsi Das 2014-Comtech Institute of Technology-Bharatpur PANDURI,CHENKARA RUPWAS,BHARATPUR undefined  9166693895  Active  05-11-2015    370.65  0.00 
485 2632 Prem Chand Saini 2014-Comtech Institute of Technology-Bharatpur KANJALI LINE DEEG ROAD BHARATPUR    9680883288  312  Active  05-11-2015    .56  1678.69 
486 2652 Vikas Agarwal 2014-Comtech Institute of Technology-Bharatpur NEAR GANDHI PARK, PAL BAGH  BHARATPUR   8441982575  Active  24-11-2015    .46  49.98 
487 2655 Madhvendra Kumar 2014-Comtech Institute of Technology-Bharatpur BEHIND OLD LAXMAN MANDIR, BHARATPUR    7610921914  Active  24-11-2015    .95  323.07 
488 2716 Gokulesh Katara 2014-Comtech Institute of Technology-Bharatpur SUBHASH NAGAR NEAR ADITI CLINIC, GOLPURA ROAD BHARATPUR    7740818852  349  Active  08-12-2015    177.04  0.00 
489 2741 Mazzal Khan 2014-Comtech Institute of Technology-Bharatpur VILL- JATWAS, UDKI DALLA  NAGAR, BHARATPUR undefined  9672281484  3687  Active  14-12-2015    445.11  767.97 
490 2743 Indrajeet Singh 2014-Comtech Institute of Technology-Bharatpur Santruk Kumher Bharatpur    9785615761  86  Active  14-12-2015    116.02  162.61 
491 2767 Laxman Singh 2014-Comtech Institute of Technology-Bharatpur AGRASEN SCHOOL KE PASS, SUBHASH NAGAR   BHARATPUR   8058202702  Active  04-01-2016    20.14  -66.96 
492 2768 Gulab Singh 2014-Comtech Institute of Technology-Bharatpur GP- GULPADA, BLOCK- NAGARR  BHARATPUR   8741081160  51  Active  04-01-2016    7.74  301.30 
493 2795 Teerath Raj 2014-Comtech Institute of Technology-Bharatpur SALPURPATHI , SIKARI NAGAR, BHARATPUR undefined  9549083991  90  Active  06-01-2016    8.87  58.39 
494 2796 Umesh Chand Saini 2014-Comtech Institute of Technology-Bharatpur VILL- NAYAMADPUR, POST- DHARSONI  WEIR , BHARATPUR undefined  9571805384  Active  06-01-2016    2265.76  0.00 
495 2797 Hitesh Goyal 2014-Comtech Institute of Technology-Bharatpur SUB TEHSIL OFFICE PARAH, BHARATPUR    7891307585  2285  Active  06-01-2016    67.68  530.87 
496 2798 Jeetesh Kumar 2014-Comtech Institute of Technology-Bharatpur VPO- KHARERA, UCHAIN   ROOPWAS, BHARATPUR undefined  9887546526  1240  Active  06-01-2016    3.42  1683.48 
497 2799 Sanjay Singh Yadav 2014-Comtech Institute of Technology-Bharatpur VILL- GULPADA, NAGAR  BHARATPUR   9928795656  1995  Active  06-01-2016    .86  918.26 
498 2800 Harvendra Kumar 2014-Comtech Institute of Technology-Bharatpur Atal Sewa Kendra, Gram Pachayat Dumariya Tehsil Roopwas, Bharatpur   9983939425  680  Active  06-01-2016    1420.8  0.00 
499 2801 Munfaid Khan 2014-Comtech Institute of Technology-Bharatpur JUMMA BANAINI DHONLKA, PADALWAS  TEH-NAGAR, BHARATPUR undefined  9610567110  177  Active  06-01-2016    118.52  76.52 
500 2802 Vishnu Kumar 2014-Comtech Institute of Technology-Bharatpur GP- SOUMKA, TEH- KAMAN  BHARATPUR   9672439280  Active  06-01-2016    1521.68  0.00 
501 2804 Parshottam 2014-Comtech Institute of Technology-Bharatpur KANWARA , TEHSIL- KAMAN  BHARATPUR   8740976447  747  Active  06-01-2016    458.52  430.43 
502 2805 Sirajuddin 2014-Comtech Institute of Technology-Bharatpur ATAL SEWA KENDRA SOMKA, KAMAN  BHARATPUR   8696614061  Active  06-01-2016    335.04  0.00 
503 2806 Palvendra Singh 2014-Comtech Institute of Technology-Bharatpur NEAR JAIN MANDIR, SEWAR ROAD  BHARATPUR   9785843476  Active  06-01-2016    0.00 
504 2808 Ravindra Singh 2014-Comtech Institute of Technology-Bharatpur NEAR KANNI GURJAR CIRCLE, BHARATPUR    9928902445  335  Active  06-01-2016    .58  800.13 
505 2860 Uttamchand Sharma 2014-Comtech Institute of Technology-Bharatpur ATAL SEVA KENDRA PAR, SEWAR  BHARATPUR   9828356142  647  Active  19-01-2016    129.3  0.00 
506 2861 Devendra Sharma 2014-Comtech Institute of Technology-Bharatpur ATAL SEVA KENDRA PINGORA, NADBAI  BHARATPUR   8739826723  Active  19-01-2016    .84  325.33 
507 2868 Veerendra Kumar 2014-Comtech Institute of Technology-Bharatpur BYANA ROAD JARILA, BHAWANPURA  ROOPBAS, BHARATPUR undefined  9772300192  Active  25-01-2016    187.59  0.00 
508 2869 Omprakash 2014-Comtech Institute of Technology-Bharatpur EMITRA PAY POINT NAGLA MAI, GP- MAI  NADMAI, BHARATPUR undefined  9001126308  Active  25-01-2016    26  0.00 
509 2875 Bajib 2014-Comtech Institute of Technology-Bharatpur VILL DUNAWAL, NAGAR   BHARATPUR   9057977653  Active  28-01-2016    .75  0.00 
510 2876 Lavesh Mudgal 2014-Comtech Institute of Technology-Bharatpur SHARMA EMITRA KENDRA, KHEDIYA MODE  NADBAI, BHARATPUR undefined  7737303119  294  Active  28-01-2016    .11  626.52 
511 2877 Rajveer Singh 2014-Comtech Institute of Technology-Bharatpur NET WEB SOFT EMITRA CENTER, NEAR SARAS HOTEL  VIJAYNAGAR, BHARATPUR undefined  8233196869  398  Active  28-01-2016    382.39  0.00 
512 2878 Balram Singh 2014-Comtech Institute of Technology-Bharatpur BAJRANG ROJGAR CENTER, BACHHAMADI  SEWAR, BHARATPUR undefined  9549959201  65  Active  28-01-2016    52.24  0.00 
513 2880 Mubeen Khan 2014-Comtech Institute of Technology-Bharatpur ATAL SEVA KENDRA PAPRA, TEH- PAHARI  BHARATPUR   9887345240  Active  28-01-2016    3193.75  0.00 
514 2881 Vivek Kumar 2014-Comtech Institute of Technology-Bharatpur ATAL SEVA KANDRA DAHINA GAUV,ROOPBAS BHARATPUR   8058329140  3917  Active  28-01-2016    1085.71  334.78 
515 2882 Pramod Yadav 2014-Comtech Institute of Technology-Bharatpur ATAL SEWA KENDRA JHAROLI, SEWAR  BHARATPUR   8432182838  Active  28-01-2016    416.37  0.00 
516 2902 Anil Kumar 2014-Comtech Institute of Technology-Bharatpur NEAR BUS STAND PAHARI,BHARATPUR    9509274849  10  Active  02-02-2016    73.09  0.00 
517 2904 Pramod Kumar 2014-Comtech Institute of Technology-Bharatpur VPO EAWARA KUMHER,BHARATPUR    9667429101  Active  02-02-2016    69.7  0.00 
518 2905 Satyendra Singh 2014-Comtech Institute of Technology-Bharatpur VILL-MUDHERA,BHARATPUR    9460925072  31  Active  02-02-2016    .03  4.78 
519 2936 Jitendra Kumar 2014-Comtech Institute of Technology-Bharatpur E-MITRA PAY POINT JURHARIGP:PAI, KAMAN BHARATPUR    8440810723  Active  04-02-2016    88.71  0.00 
520 2985 Susheela Devi 2014-Comtech Institute of Technology-Bharatpur E-MITRA PAY POINT BIRAR GP:SABLANA KAMAN BHARATPUR    9680135253  Active  09-02-2016    4.69  0.00 
521 3005 Robin Kumar 2014-Comtech Institute of Technology-Bharatpur ROBIN EMITRA CENTER, NEAR BUS STAND  KHUMHER, BHARATPUR undefined  7691804811  Active  11-02-2016    1.59  4.40 
522 3008 Dharm Singh 2014-Comtech Institute of Technology-Bharatpur CHHOTE RAM JI MANDIR, HIGH SCHOOL KE PASS  KAMAN, BHARATPUR undefined  9549914172  1725  Active  12-02-2016    48.61  129.13 
523 3010 Bhola Ram 2014-Comtech Institute of Technology-Bharatpur NIKKI COMPUTERS & EMITRA CENTER NAJDEEKI PETROL PUMP KE SAMNE, PAHARI  BHARATPUR   9529825570  Active  12-02-2016    563.25  0.00 
524 3011 Tej Singh Yadav 2014-Comtech Institute of Technology-Bharatpur GP-BERRU,TEH-NAGAR BHARATPUR   9772676379  Active  12-02-2016    208.88  0.00 
525 3012 Abhay Singh Chaudhary 2014-Comtech Institute of Technology-Bharatpur ATAL SEVA KENDRA , WEIR  BHARATPUR   9929452588  Active  12-02-2016    49.56  95.65 
526 3013 Monu Kumar 2014-Comtech Institute of Technology-Bharatpur ATAL SEWA KENDRA KHEDI DEVI SINGH, NADBAI  BHARATPUR   8386840056  139  Active  12-02-2016    2.07  0.00 
527 3014 Manoj Kumar Yadav 2014-Comtech Institute of Technology-Bharatpur ATAL SEWA KENDRA, BERRO  BHARATPUR   9828741131  1451  Active  12-02-2016    34.87  0.00 
528 3050 Kumarpal 2014-Comtech Institute of Technology-Bharatpur VPO- BARAHI, DEEG  BHARATPUR   9887691796  Active  17-02-2016    .45  124.35 
529 3051 Neha Jain 2014-Comtech Institute of Technology-Bharatpur INDRA CHOWK KUMHER,TEH-KUMHER BHARATPUR   9460877077  206  Active  17-02-2016    .01  57.39 
530 3072 Ramgopal Singh 2014-Comtech Institute of Technology-Bharatpur E-MITRA PAY POINT KARUA GP:TAMRER, KUMHER BHARATPUR    8426919293  Active  23-02-2016    84.75  0.00 
531 3096 Zakir Husain 2014-Comtech Institute of Technology-Bharatpur EMITRA PAY POINT RANIYALA,GP-JAISHREE PS-NAGAR,BHARATPUR undefined  9772307016  Active  29-02-2016    0.00 
532 3097 Rajender Kumar 2014-Comtech Institute of Technology-Bharatpur SHIVAM STUDIO , SAHYOG NAGAR  BHARATPUR   9785613357  52  Active  29-02-2016    .82  14.35 
533 3143 Nagendra Singh 2014-Comtech Institute of Technology-Bharatpur Heeradas Central Bus Stand Ke Samne, Khadi Bhandar Ki Bagal Main  Bharatpur   9166862393  3367  Active  03-03-2016    .49  1889.13 
534 3161 Imran 2014-Comtech Institute of Technology-Bharatpur VILL-SIKRI,PS-NAGAR BHARATPUR   7732861901  Active  09-03-2016    0.00 
535 3284 Sirajuddin 2014-Comtech Institute of Technology-Bharatpur VILL-DHANA,GP-SOMKA TEH-PAHARI,BHARATPUR undefined  8696614061  Active  01-04-2016    0.00 
536 3285 Mustufa 2014-Comtech Institute of Technology-Bharatpur EMITRA PAY POINT KHERIL NANOO,GP-GHOSEENGA PS-PAHAI,BHARATPUR undefined  8058532828  Active  01-04-2016    0.00 
537 3360 Saurabh Kumar 2014-Comtech Institute of Technology-Bharatpur NEAR BAGARWALA SHOWROOM,OLD LAXMAN MANDIR BHARATPUR   8058577992  1289  Active  14-04-2016    334.49  232.67 
538 3393 Satyapal Harsainia 2014-Comtech Institute of Technology-Bharatpur TODAY INFORMATICS CENTER, INDRA NAGAR  HEERADAS, BHARATPUR undefined  7597412603  231  Active  21-04-2016    .81  425.65 
539 3460 Bhawani Singh Yadav 2014-Comtech Institute of Technology-Bharatpur VPO- PALKA, TEH- NAGAR  BHARATPUR   9672831095  35  Active  05-05-2016    250  205.65 
540 3461 Yogesh 2014-Comtech Institute of Technology-Bharatpur BEHIND ANAND SCHOOL, SHASTRI NAGAR   BHARATPUR   8385999640  1423  Active  05-05-2016    41.53  169.30 
541 3470 Manish 2014-Comtech Institute of Technology-Bharatpur ATAL SEVA KENDRA BARAI, DEEG  BHARATPUR   8440017001  677  Active  10-05-2016    122.21  133.91 
542 3509 Mahendra Kumar 2014-Comtech Institute of Technology-Bharatpur SIKARI CHAK NO 1,VILL-SIKARI PS-NAGAR,BHARATPUR undefined  9667935096  1925  Active  24-05-2016    9.29  57.39 
543 3510 Ajay Singh 2014-Comtech Institute of Technology-Bharatpur NIDHI EMITRA CENTER, VILL- MAHARAIPUR  POST- JHANJHAR, TEH- NAGAR  BHARATPUR  9610081240  Active  24-05-2016    0.00 
544 3513 Rajesh Kumar Gaur 2014-Comtech Institute of Technology-Bharatpur NEAR PNB BANK JURHERA, KAMAN  BHARATPUR   9460318717  Active  24-05-2016    0.00 
545 3525 Love Kumar 2014-Comtech Institute of Technology-Bharatpur EMITRA PAY POINT JAREELA,GP- BHAVANPURA  RUPBAS, BHARATPUR  undefined  9982751032  Active  25-05-2016    0.00 
546 3530 Shivjeet 2014-Comtech Institute of Technology-Bharatpur ANAND NAGAR, SEWAR BYPASS  BHARATPUR   9887996296  737  Active  26-05-2016    3.56  0.00 
547 3533 Than Singh 2014-Comtech Institute of Technology-Bharatpur ATAL SEWA KENDRA, SOGAR  KUMHER, BHARATPUR undefined  9782063329  Active  27-05-2016    0.00 
548 3542 Pradeep Kumar Saini 2014-Comtech Institute of Technology-Bharatpur BANKEY BIHARI EMITRA CENTER, NEAR CANERA BANK  NADBAI, BHARATPUR undefined  8963891892  3764  Active  30-05-2016    173.32  864.46 
549 3621 Jakir Hussain 2014-Comtech Institute of Technology-Bharatpur Atal Seva Kendra Ladlaka, Tehsil - Pahari  Bharatpur   9549168775  Active  27-06-2016    0.00 
550 3622 Pramod Kumar 2014-Comtech Institute of Technology-Bharatpur NEAR NAND PETROL PUMP, PAHARI ROAD  KAMAN , BHARATPUR undefined  9680195434  Active  27-06-2016    38.26 
551 3623 Sumundara Singh 2014-Comtech Institute of Technology-Bharatpur AMBEDKAR CHOK, TEH-KAMAN  BHARATPUR   9785687903  Active  27-06-2016    0.00 
552 3624 Shri Ram Sharma 2014-Comtech Institute of Technology-Bharatpur NEAR HINDI PUSTKALAY, NEEM GHATA MOHALLA  DEEG, BHARATPUR undefined  7568373839  Active  27-06-2016    0.00 
553 3625 Tejpal 2014-Comtech Institute of Technology-Bharatpur BHUDA GATE , DEEG BHARATPUR    9785621522  794  Active  27-06-2016    344.35 
554 3626 Karan Singh Choudhary 2014-Comtech Institute of Technology-Bharatpur VPO- BARASO, BHARATPUR    9783826851  85  Active  27-06-2016    14.35 
555 3627 Lokendra Mauhviya 2014-Comtech Institute of Technology-Bharatpur VILL- BAROLI CHOUITH, DEEG   BHARATPUR   9929750657  Active  27-06-2016    0.00 
556 3628 Devendra Singh 2014-Comtech Institute of Technology-Bharatpur Ashu Foujdar Emitra Centre, V&P. Rarah  Tehsil - Kumher, Bharatpur undefined  8740888728  Active  27-06-2016    0.00 
557 3693 Niraj Jain 2014-Comtech Institute of Technology-Bharatpur TOLAN CHOK JURHERA TEH. KAMAN DIST. BHARATPUR    9785478293  Active  25-07-2016    0.00 
558 1434 Pushpendra Kumar 2014-CMS eMitra-Bharatpur Main Kachari Road Bayana Dis. Bharatpur    05648-225122  1399  Active  02-03-2015    309.33  168.35 
559 1435 Yashwant Yadav 2014-CMS eMitra-Bharatpur GARM BISDA POST JHAROLI SEWAR BHARATPUR    8432182838  Active  02-03-2015    93.38  62.17 
560 1511 Mahesh Chand 2014-CMS eMitra-Bharatpur Gram Sendhli Weir Bharatpur    9887091919  16  Active  25-03-2015    1.81  277.39 
561 1512 Bhagwan Singh 2014-CMS eMitra-Bharatpur Gram Itamda Bhusawar Bharatpur    9887847501  645  Active  25-03-2015    .51  1468.26 
562 2134 Naresh Chand Gupta 2014-CMS eMitra-Bharatpur KAKAJI MARKET KE PASS CHOUBURJA BAZAR BHARATPUR    9413650001  43  Active  14-05-2015    81.54  187.37 
563 2221 Indar Singh 2014-CMS eMitra-Bharatpur GRAM-GIVINDPURA POST-MUHARI WEIR BHARATPUR    05643272582  1079  Active  29-05-2015    30.22  148.26 
564 2223 Jitendra Prakash 2014-CMS eMitra-Bharatpur Jawahar Nagar Bharatpur     8829839877  Active  29-05-2015    .98  28.70 
565 2481 Govind Singh 2014-CMS eMitra-Bharatpur BAGHEL PHOTO STATE,HELAK CHORAHA  SAVER, BHARATPUR undefined  9785139859  598  Active  28-08-2015    40.9  709.26 
566 2592 Prabhu Dayal 2014-CMS eMitra-Bharatpur GRAM PANHORI TEH. DEEG BHARATPUR    9785622773  45  Active  19-10-2015    28.6  0.00 
567 2634 Manoj Kumar Katara 2014-CMS eMitra-Bharatpur Ganpati Market Anah Gate Bharatpur Raj.    9461462215  21  Active  06-11-2015    653.05  124.35 
568 3057 Rajkumar 2014-CMS eMitra-Bharatpur Umra,Au.Deeg Bharatpur   9982240193  Active  17-02-2016    0.00 
569 3374 Vishal 2014-CMS eMitra-Bharatpur Vishal Emitra Center Binarayan Gate Bharatpur    8502879450  970  Active  18-04-2016    382.07  1241.56 
570 3429 Suresh Chand 2014-CMS eMitra-Bharatpur Emitra Pay PointGram Arauda Hantra Nadbai Bharatpur    9057778495  Active  29-04-2016    277.36  0.00 
571 3430 Pooran Singh 2014-CMS eMitra-Bharatpur Emitra Pay PointGram Sadhpura Purwai Kheda Bayana Bharatpur    7690951414  Active  29-04-2016    0.00 
572 3431 Ramveer Singh 2014-CMS eMitra-Bharatpur Emitra Pay PointGram Thikariya Brodha Bayana Bharatpur    8696546769  Active  29-04-2016    0.00 
573 3432 Jawahar Singh 2014-CMS eMitra-Bharatpur Emitra Pay PointGram Bhootka Muriya Nagar Bharatpur    9929816348  Active  29-04-2016    0.00 
574 3433 Sunil Kumar 2014-CMS eMitra-Bharatpur Emitra Pay PointGram Sasaina Weir Bharatpur    8094505869  Active  29-04-2016    0.00 
575 3436 Meghraj 2014-CMS eMitra-Bharatpur Emitra Pay PointGram Kurkain Aalamshah Nagar Bharatpur    8058912838  Active  29-04-2016    0.00 
576 3437 Lakhan Singh 2014-CMS eMitra-Bharatpur Emitra Pay PointGram Khanpur Jarothi Weir Bharatpur    9549126940  Active  29-04-2016    0.00 
577 3439 Pankaj Kumar Verma 2014-CMS eMitra-Bharatpur Emitra Pay PointGram+Post Bachhren Wair Bharatpur    8441809880  Active  29-04-2016    0.00 
578 3440 Arif Khan 2014-CMS eMitra-Bharatpur Emitra Pay PointGram Arsi Nagar Bharatpur    9672204915  Active  29-04-2016    0.00 
579 3480 Jaiveer Singh 2014-CMS eMitra-Bharatpur Emitra Pay PointGram Habeebpur Post Par Sewar Bharatpur    9460454182  Active  17-05-2016    0.00 
580 3481 Ravindra Kumar Verma 2014-CMS eMitra-Bharatpur Emitra Pay PointGram  Salempur Khurd Post Salempur Khurd The. Bhusawar Bharatpur    8058947783  Active  17-05-2016    49.15  0.00 
581 3482 Salman Khan 2014-CMS eMitra-Bharatpur Emitra Pay Point Gram Chak Cheluwa, Fatehpur Nagar Bharatpur    8058481135  Active  17-05-2016    0.00 
582 3483 Jaikam Khan 2014-CMS eMitra-Bharatpur Vill. Semla Kalan, Teh. Nagar  Bharatpur.   9887156024  Active  17-05-2016    0.00 
583 3484 Lekhraj 2014-CMS eMitra-Bharatpur Emitra Pay PointGram Kumharedi Chirawal Mali Nagar Bharatpur    8440029807  Active  17-05-2016    0.00 
584 3485 Islam 2014-CMS eMitra-Bharatpur Emitra Pay PointGram Vadhaka Aalamshah Nagar Bharatpur    9672106851  Active  17-05-2016    0.00 
585 3486 Lakhan Singh 2014-CMS eMitra-Bharatpur Emitra Pay PointGram Nagla Khatka NahroliRudawal Bayana Bharatpur    8058673074  Active  17-05-2016    0.00 
586 3487 Ramveer Singh 2014-CMS eMitra-Bharatpur Emitra Pay PointGram Jaghina Sewar Bharatpur    7222877701  Active  17-05-2016    0.00 
587 3488 Soran Singh 2014-CMS eMitra-Bharatpur Emitra Pay Point Gram Ravidaspura Gangwak Nagar Bharatpur    9772656530  Active  17-05-2016    0.00 
588 3489 Vahid Khan 2014-CMS eMitra-Bharatpur Emitra Pay Point Gram Gahankar Pandaka Nagar Bharatpur    9549811391  Active  17-05-2016    0.00 
589 3490 Shashi Kumar 2014-CMS eMitra-Bharatpur Emitra Pay Point Gram Rund Helak Bari Rund Helak Kumher Bharatpur    8560934380  Active  17-05-2016    0.00 
590 3494 Bhedram 2014-CMS eMitra-Bharatpur V PO Bhandara Teh. Kaman Bharatpur    9672110566  Active  20-05-2016    0.00 
591 3495 Mohammad Ali Khan 2014-CMS eMitra-Bharatpur Emitra Pay PointGram Birgawan Fetehpur Kalan Nagar Bharatpur    9610567121  Active  23-05-2016    0.00 
592 3496 Aslam Khan 2014-CMS eMitra-Bharatpur Emitra Pay PointGram Somsi Fetehpur Kalan Nagar Bharatpur    7665375275  Active  23-05-2016    0.00 
593 3497 Dharam Singh 2014-CMS eMitra-Bharatpur Salempur Khurd, Bharatpur.    7665905955  Active  23-05-2016    0.00 
594 3498 Puspendra Singh 2014-CMS eMitra-Bharatpur Vill. Bagh Ka Nagla.Talphara,Kumher  Bharatpur.   8890666151  Active  23-05-2016    0.00 
595 3499 Gopesh Kumar Jatav 2014-CMS eMitra-Bharatpur Emitra Pay PointGram Uloo Kamalpura Bhusawar Bharatpur    9166708911  Active  23-05-2016    0.00 
596 3500 Omprakash 2014-CMS eMitra-Bharatpur Emitra Pay PointGram Jindpura Baridha Roopwas Bharatpur     8740052097  Active  23-05-2016    0.00 
597 3501 Bachchu Singh 2014-CMS eMitra-Bharatpur Emitra Pay Point Bhagora Lakhanpur Weir Bharatpur    9602599476  Active  23-05-2016    0.00 
598 3502 Ajeet Kumar 2014-CMS eMitra-Bharatpur Emitra Pay PointGram Gunsara Kumher Bharatpur    7792826642  Active  23-05-2016    0.00 
599 3503 Mahendra Singh 2014-CMS eMitra-Bharatpur Emitra Pay Point Gram Vijay Nagar Rundh Helak Bharatpur     9783184960  Active  23-05-2016    0.00 
600 3504 Asalam Khan 2014-CMS eMitra-Bharatpur Emitra Pay Point Gram Veerthala Mudoti Nagar Bharatpur    9928212380  Active  23-05-2016    0.00 
601 3657 Akram 2014-CMS eMitra-Bharatpur Emitra Pay PonitGram Paltoo Thun Nagar Bharatpur    9928212380  Active  07-07-2016    0.00 
602 3658 Amrit Singh 2014-CMS eMitra-Bharatpur Emitra Pay Point Gram Khadraya Bhesina Bharatpur    8432369788  Active  07-07-2016    0.00 
603 3659 Mahendra Singh 2014-CMS eMitra-Bharatpur Emitra Pay Point Gram Saindoli Nadbai Bharatpur    8058120129  Active  08-07-2016    0.00 
604 3667 Phoolvati 2014-CMS eMitra-Bharatpur 238 Tilak Nagar Bharatpur    7062813580  Active  08-07-2016    0.00 
605 3668 Vierendra Kumar 2014-CMS eMitra-Bharatpur Emitra Kiosk Tilak Nagar Bharatpur    8875785698  1915  Active  08-07-2016    129.13 
606 3669 Shubham Kumar Saini 2014-CMS eMitra-Bharatpur Out Side B Narayan Gate Kaccha Kunda Ghana Road Bharatpur    8502966929  Active  08-07-2016    0.00 
607 3670 Kuldeep Singh 2014-CMS eMitra-Bharatpur Main Market Kumher Bharatpur    9460075143  2000  Active  08-07-2016    0.00 
608 3671 Raju 2014-CMS eMitra-Bharatpur Rathi Studio Binarayan Gate Bharatpur    9983940515  Active  08-07-2016    0.00 
609 3685 Jitendra Kumar 2014-CMS eMitra-Bharatpur Brij Nagar Bharatpur    9784986859  1761  Active  18-07-2016    5.50 
610 833 pradlad shing 2014-Vakrangee-Bharatpur jaya usrani kumher bharatpur   9667039751  408  Active  02-09-2014    588.9  248.70 
611 834 moti ram 2014-Vakrangee-Bharatpur khan khera dist:- bharatpur   8890214708  92  Active  02-09-2014    -.62  325.22 
612 836 pushp lata 2014-Vakrangee-Bharatpur vpo-jharonti block-weit bharatpur  9414681595  46  Active  02-09-2014    51.56  45.91 
613 837 Shyambeer Chauhan 2014-Vakrangee-Bharatpur vpo-kharera block:-rupbas bharatpur  9414975080  2216  Active  02-09-2014    -.97  0.00 
614 838 radhe shyam 2014-Vakrangee-Bharatpur singhara block bayana bharatpur  9887368316  214  Active  02-09-2014    8.46  3386.08 
615 839 Pramod Kumar 2014-Vakrangee-Bharatpur VPO - Siras BLOCK - Weirs Dist - Bharatpur  9887223330  12  Active  03-09-2014    194.36  0.00 
616 844 Raj kumar 2014-Vakrangee-Bharatpur VPO - Reethauthi Block - Kunher Dist - Bharatpur  9783924366  Active  03-09-2014    57.08  172.17 
617 848 Ravindra Kumar Meena 2014-Vakrangee-Bharatpur VPO- Chaintoli, Block - Weir Dist. - Bharatpur  9468666284  900  Active  04-09-2014    -.33  722.28 
618 849 Ashok Lawaniya 2014-Vakrangee-Bharatpur VPO- Halena,  Block - Weir Dist. - Bharatpur  9414903955  3897  Active  04-09-2014    73.18  2618.00 
619 850 Uttam Singh 2014-Vakrangee-Bharatpur nagla Tehriy An Mafi F/P-N Tehriy A Mafi Block - Rupbas Disst. - Bharatpur  9828911272  47  Active  04-09-2014    .47  0.00 
620 851 Vipin Kumar 2014-Vakrangee-Bharatpur sikandara Block - Bayana Disst. - Bharatpur  8094283058  47  Active  04-09-2014    49.51  0.00 
621 852 Raju Singh 2014-Vakrangee-Bharatpur Takha, G/P - Ta Kha  block - Kumher Disst. - Bharatpur  9694341720  3028  Active  04-09-2014    990.49  148.26 
622 853 Lokesh Kumar 2014-Vakrangee-Bharatpur Kot  Bayana Bharatpur  9799320408  10  Active  04-09-2014    744.44  0.00 
623 854 Prathveeraj 2014-Vakrangee-Bharatpur Baroda Ayana Disst. - Bhartpur  8003686804  3718  Active  04-09-2014    548.08  71.74 
624 903 Gaurav Kumar 2014-Vakrangee-Bharatpur VPO- Khandewla Block - Nagar Dist. - Bharatpur  9461080611  185  Active  17-09-2014    .46  0.00 
625 904 Haripal 2014-Vakrangee-Bharatpur Ward No. 13  Naharganj mohalla Kumher Bharatpur  9460659190  3059  Active  17-09-2014    .14  559.56 
626 905 Naresh Kumar Sharma 2014-Vakrangee-Bharatpur Gangora, Nagar Bharatpur  8094577032  294  Active  17-09-2014    -.38  280.70 
627 906 Rajesh Kumar 2014-Vakrangee-Bharatpur Nagla Heeradas, Opp Numaish Ground Bharatpur  9309314407  4356  Active  17-09-2014    .85  258.26 
628 922 PRADEEP SINGH 2014-Vakrangee-Bharatpur Ward no 16 Neeraj Mishthan Bhandhar Ke Pichhe Kumher Bhartpur   9166545061  1149  Active  19-09-2014    .58  703.04 
629 925 Poonam Chand Saini 2014-Vakrangee-Bharatpur Barauli  Weir,Bharatpur   9782754965  63  Active  20-09-2014    10.78  4.78 
630 926 Rajendra Kumar Sharma 2014-Vakrangee-Bharatpur Sharma Computers, Khodi Mod Deeg Road, Nagar Bharatpur  9828537748  2369  Active  20-09-2014    .95  1844.18 
631 935 Bhagwan Singh Meena 2014-Vakrangee-Bharatpur Barkhera  Bayana Bharatpur  9414890478  56  Active  26-09-2014    38.39  1487.39 
632 936 Anil Kumar Mathur 2014-Vakrangee-Bharatpur Mathur Internet & Emitra Center Basan Gate Kotwali Bharatpur  9571511899  2347  Active  26-09-2014    .64  2688.31 
633 937 Khushi Ram 2014-Vakrangee-Bharatpur Nagla Beeja Rupbas Bharatpur  9784309994  Active  26-09-2014    6.75  38.26 
634 938 RAJENDRA DAGUR 2014-Vakrangee-Bharatpur Dagur emitra V/P nagar Teh- nagar near govt hospital Bhartpur   9667175659  3545  Active  26-09-2014    .55  133.91 
635 939 Sanjay Singh 2014-Vakrangee-Bharatpur Peepla Sewar Bharatpur  9782599434  15  Active  26-09-2014    384.43  0.00 
636 941 SHER SINGH 2014-Vakrangee-Bharatpur Cheema emitra Nand Hotel ke pass ward no 19 Bhartpur   9828580712  1487  Active  26-09-2014    4.05  3546.06 
637 943 JUGAL BIHARI 2014-Vakrangee-Bharatpur Purohit emitra center kotwali bazar near sitaramji mandir Bhartpur   9783319205  Active  26-09-2014    88.34  4.78 
638 945 SANJAY KUMAR 2014-Vakrangee-Bharatpur Sanjay emitra Ward no 05 Near Panchyat Samiti Sewar Bhartpur   9928816222  27877  Active  26-09-2014    196.13  157.83 
639 946 JITENDRA KUMAR 2014-Vakrangee-Bharatpur Jitendra emitra center Kumher Bhartpur   8003601746  489  Active  26-09-2014    .66  1342.95 
640 959 Shiv Kumar Sharma 2014-Vakrangee-Bharatpur Marauli, Rupbas Bharatpur   9785719204  263  Active  08-10-2014    43.19  1525.65 
641 968 Rohit Sharma 2014-Vakrangee-Bharatpur Tilak Nagar Bharatpur   8003391909  13530  Active  09-10-2014    645.62  0.00 
642 969 Paras Ram Saini 2014-Vakrangee-Bharatpur Near Bus Stand Deeg Bharatpur   9529003555  2042  Active  09-10-2014    684.44  43.04 
643 971 Rakesh 2014-Vakrangee-Bharatpur Sarvodya Nagar,ricco Road Bharatpur   9782505906  Active  09-10-2014    22.43  19.13 
644 1024 Manoj Kumar 2014-Vakrangee-Bharatpur Kumher Road Bohra Market,Bharatpur    9983664711  1654  Active  29-10-2014    -.6  377.83 
645 1025 Kali Charan 2014-Vakrangee-Bharatpur Jahangeerpur,Nadbai,Bharatpur     9602761341  886  Active  29-10-2014    .25  0.00 
646 1026 Parasram 2014-Vakrangee-Bharatpur Talchhera,Nadbai,Bharatpur    9667865574  65  Active  29-10-2014    100.52  4.78 
647 1049 Bhupendra Singh 2014-Vakrangee-Bharatpur Padawali,Bayana Bharatpur   9636059531  137  Active  21-11-2014    .12  0.00 
648 1054 Hemendra Kumar 2014-Vakrangee-Bharatpur VPO-Dandoo,Block-Kumher Distt.-Bharatpur   9785202112  Active  21-11-2014    50.09  0.00 
649 1055 Jitendra Singh 2014-Vakrangee-Bharatpur VPO-Thana Dang,Block-Bayana Distt.-Bharatpur   8740979934  476  Active  22-11-2014    79.05  205.65 
650 1056 Irfan 2014-Vakrangee-Bharatpur VPO-Nagla Kundan,Block-Kaman Distt.-Bharatpur   9982562793  330  Active  22-11-2014    277.24  65.04 
651 1063 Jagat Singh 2014-Vakrangee-Bharatpur VPO-Karwari,Block-Bayana Distt.-Bharatpur   9875036609  Active  25-11-2014    -22.15  0.00 
652 1070 Anil Kumar 2014-Vakrangee-Bharatpur Anil Emitra,Bapu Bazar Nagar,Bharatpur undefined  9784397159  3204  Active  26-11-2014    16.59  521.30 
653 1071 Saurabh Godha 2014-Vakrangee-Bharatpur Near Kotwali,Chauturja Bharatpur   9509618018  4670  Active  26-11-2014    .15  6884.08 
654 1084 Sarita 2014-Vakrangee-Bharatpur Bahra Rekhapur,Rupbas Bharatpur   8058592215  11  Active  27-11-2014    659.32  0.00 
655 1085 Kapil Goyal 2014-Vakrangee-Bharatpur BAYANA, BHARATPUR   RAJASTHAN,PIN CODE NO - 321401 undefined  9667548958  Active  27-11-2014    7.34  14.35 
656 1087 Hemant Kumar 2014-Vakrangee-Bharatpur Nigohi,Deeg Bharatpur   8239774703  Active  27-11-2014    -.74  0.00 
657 1089 Raju Pachahara 2014-Vakrangee-Bharatpur Bandha Chauth,Deeg Bharatpur   9413590442  Active  27-11-2014    .73  0.00 
658 1091 Ravi Kumar 2014-Vakrangee-Bharatpur Nahroli Deshwar,Shishwada Deeg,Bharatpur undefined  8875023730  2694  Active  27-11-2014    784.7  196.09 
659 1103 Pushpendra Singh 2014-Vakrangee-Bharatpur Piprau,Block-NAdbai Distt.-BharatpUr   9166662311  Active  04-12-2014    0.00 
660 1104 Narendra Kumar 2014-Vakrangee-Bharatpur VPO-Sedpura,Block-Rupbas Distt.-Bharatpur   05645276427  251  Active  04-12-2014    .6  999.56 
661 1114 Bhag Chand Saini 2014-Vakrangee-Bharatpur Chak Dharsoni,Block-Weir Distt.-BhAratpur   9414758409  1197  Active  11-12-2014    .39  805.39 
662 1115 Pradeep Kumar 2014-Vakrangee-Bharatpur Agarwal Printer,Weir Bharatpur   9414713614  326  Active  11-12-2014    1003.82  15.07 
663 1116 Rajkumar 2014-Vakrangee-Bharatpur Malipura,Sewar Bharatpur   9782734407  587  Active  11-12-2014    100.8  0.00 
664 1128 Harish Kumar 2014-Vakrangee-Bharatpur VPO-Rarah,Block-Kumher Distt.-Bharatpur   9782506026  Active  18-12-2014    7.28  669.56 
665 1129 Areef Khan 2014-Vakrangee-Bharatpur Malki,Nagar Bharatpur   9828171290  10  Active  18-12-2014    1.62  2.99 
666 1136 Jitendra Singh 2014-Vakrangee-Bharatpur Village Nonera Thesil Kaman    7690908990  Active  19-12-2014    .61  286.96 
667 1137 Rahul Bansal 2014-Vakrangee-Bharatpur Mangal Colony Rudaval    9875203203  10  Active  19-12-2014    .35  210.43 
668 1138 Hardev Singh 2014-Vakrangee-Bharatpur Village Januthar Deeg Bharatpur    8504925138  Active  19-12-2014    129.31  0.00 
669 1139 Ved Prakash Saini 2014-Vakrangee-Bharatpur Near Tehsil Kaman    05641230758  Active  19-12-2014    .53  0.00 
670 1140 Hitesh Garg 2014-Vakrangee-Bharatpur Jurhera Kaman    9549677294  2056  Active  19-12-2014    -.57  105.22 
671 1219 Rajveer Singh 2014-Vakrangee-Bharatpur RARODA , KHAN KHEDA  BAYANA ,BHARATPUR undefined  9828835905  166  Active  22-12-2014    417.01  66.96 
672 1221 Shailender Kumar Saini 2014-Vakrangee-Bharatpur Nai Sadak Deeg    05641220230  5072  Active  23-12-2014    .3  1527.79 
673 1232 Ashish Kumar 2014-Vakrangee-Bharatpur VPO-Gurdha Nadi,Block-Bayana Distt.-Bharatpur   8290557872  44  Active  26-12-2014    132.74  66.96 
674 1238 Ram Babu 2014-Vakrangee-Bharatpur Near Chotala Ki Shop  Subhash Nagar Bharatpur   9680834848  2753  Active  29-12-2014    129.59  662.63 
675 1239 Hem Kumar 2014-Vakrangee-Bharatpur Bhuda Gate Deeg    05641220016  431  Active  29-12-2014    7.8  1230.56 
676 1240 Gulshan Sharma 2014-Vakrangee-Bharatpur Rajiv Gandhi Seva Kendra Village Post Bachhmadi(Noh)Bharatpur    7611851998  93  Active  29-12-2014    .37  9.18 
677 1242 Suneel Kumar 2014-Vakrangee-Bharatpur INFRONT OF SBBJ BANK, ARYA SAMAJ ROAD  BAYANA, BHARATPUR undefined  8432663479  Active  07-01-2015    -.8  526.09 
678 1243 Subran Singh 2014-Vakrangee-Bharatpur JANOOTHAR, TEHSIL - DEEG  BHARATPUR   9829547617  11  Active  07-01-2015    .8  148.26 
679 1246 Jeetendra Singh Dagur 2014-Vakrangee-Bharatpur RAJIV GANDHI KENDRA NAROLI,TEHSIL - BAYANA  BHARATPUR(RAJASTHAN)   9928690092  82  Active  07-01-2015    .95  0.00 
680 1247 Navdeep Singh 2014-Vakrangee-Bharatpur RAJIV GANDHI KENDRA KHER,BAYANA BHARATPUR(RAJASTHAN)   9694716874  15  Active  07-01-2015    159.85  774.78 
681 1248 Raju Lal 2014-Vakrangee-Bharatpur Ghor Mahua Sawer    7891035727  1273  Active  07-01-2015    .17  1544.78 
682 1262 Manish Chhabra 2014-Vakrangee-Bharatpur SHIV NAGAR, BEHING SINGHAL OIL MILL  BHARATPUR   8854878487  639  Active  10-01-2015    .06  417.47 
683 1264 Akhalesh Kumar 2014-Vakrangee-Bharatpur GARG CYBER ZONE, ATALBAND  BHARATPUR   9549973808  48  Active  10-01-2015    .06  339.56 
684 1268 Mohit Kumar 2014-Vakrangee-Bharatpur Near Pashu Hosptal, Kachahari Road  Bharatpur   9461868469  9575  Active  12-01-2015    -10000.77  4527.69 
685 1280 Girish Kumar 2014-Vakrangee-Bharatpur INFRONT OF SAMUDAYAK BHAWAN, RIICO ROAD  BHARATPUR   8952043136  1508  Active  16-01-2015    .95  135.09 
686 1289 Dharmender Singh 2014-Vakrangee-Bharatpur VPO-Pali,Block-Weir Distt.-Bharatpur   9928134310  1625  Active  21-01-2015    356.11  181.74 
687 1290 Sakir Husain 2014-Vakrangee-Bharatpur Ladamka,Nagar Bharatpur   9772603960  945  Active  21-01-2015    1000.46  1745.65 
688 1291 Ganga Singh Yadav 2014-Vakrangee-Bharatpur VPO-Dhilawati,Block-Kaman Distt.-Bharatpur   7568257478  59  Active  21-01-2015    102.39  38.26 
689 1292 Ram Gopal 2014-Vakrangee-Bharatpur INFRONT OF MSJ COLLAGE, BHARATPUR    9782290010  2594  Active  21-01-2015    31.69  440.00 
690 1295 Mohini Dubey 2014-Vakrangee-Bharatpur Behind Kendriya Bus Stand, Bharatpur    8058276502  353  Active  22-01-2015    33.35  95.65 
691 1298 Sachin Khandelwal 2014-Vakrangee-Bharatpur Deeg Road Kumher    9024221353  3030  Active  22-01-2015    .13  3617.56 
692 1299 Lokesh Singh 2014-Vakrangee-Bharatpur Village Toda Post Hingota Deeg Bharatpur     8441097557  790  Active  22-01-2015    208.22  0.00 
693 1300 Nagendra Singh 2014-Vakrangee-Bharatpur Village Jatoli Thoon Deeg Bharatpur    8239320003  Active  22-01-2015    32.25  0.00 
694 1301 Akhalesh Kumar 2014-Vakrangee-Bharatpur Near Lal Darbaja Bayana Bharatpur    9672575195  54  Active  22-01-2015    15.98  0.00 
695 1302 Manoj Kumar 2014-Vakrangee-Bharatpur Ward-08,Vijay Nagar Colony Bharatpur   9785050703  448  Active  22-01-2015    10.07  430.43 
696 1303 Ramendra Singh 2014-Vakrangee-Bharatpur NEAR COLLECTRATE CAMPUS, BHARATPUR    8058468405  328  Active  22-01-2015    .07  428.52 
697 1304 Ranjeet Singh 2014-Vakrangee-Bharatpur IT KENDRA, HATHAINI  BLOCK- SEWAR, BHARATPUR undefined  9887962044  1819  Active  22-01-2015    888.14  698.26 
698 1305 Rameshwar 2014-Vakrangee-Bharatpur IT KENDRA, GHUSHYARI  BLOCK- SEWAR, BHARATPUR undefined  8290556585  11  Active  22-01-2015    2380.26  0.00 
699 1306 Gaurav Kumar 2014-Vakrangee-Bharatpur Anah Gate Pather Ki Taal Bharatpur    9887126355  212  Active  23-01-2015    .32  8834.66 
700 1318 Govind 2014-Vakrangee-Bharatpur SHERGADH,BAYANA BHARATPUR   9413312658  1755  Active  30-01-2015    11.74  1219.56 
701 1319 Mukesh Kumar Dubey 2014-Vakrangee-Bharatpur WARD-02,BEHIND BUS DEPOT HELAR HOUSE,SUBHASH NAGAR BHARATPUR  9414889065  98  Active  30-01-2015    -.53  0.00 
702 1326 Niranjan Lal Gauttam 2014-Vakrangee-Bharatpur 31,Kalyan Mauhlla Kaman,Bharatpur undefined  9828025135  1787  Active  03-02-2015    455.6  296.52 
703 1327 Ramesh Singh 2014-Vakrangee-Bharatpur VIL-KHANSWARA POST -PAPRERA TEH-KUMHER DIST-BHARATPUR    9636191024  594  Active  03-02-2015    .93  215.22 
704 1328 Dinesh Kumar 2014-Vakrangee-Bharatpur Dinesh Emitra,Infront Of MSJ Collage Bharatpur,Bharatpur undefined  9649103299  8187  Active  03-02-2015    588.84  970.87 
705 1330 Prem Singh 2014-Vakrangee-Bharatpur IT KENDRA, JHAROLI  BLOCK - SEWAR, BHARATPUR undefined  8952013367  212  Active  03-02-2015    -.18  0.00 
706 1336 Mubarik 2014-Vakrangee-Bharatpur VPO Bhonri The. Pahari Bharatpur    9587773344  740  Active  03-02-2015    .6  21.67 
707 1337 Rashid 2014-Vakrangee-Bharatpur Village Nandera Teh. Kaman Bharatpur    8094509630  15  Active  03-02-2015    26.33  0.00 
708 1362 Hari Das 2014-Vakrangee-Bharatpur BEHIND PHOOL SINGH TANT HOUSE, HEERADAS  BHARATPUR   9887540721  25  Active  05-02-2015    .66  272.61 
709 1363 Ajay Singh 2014-Vakrangee-Bharatpur IT KENDRA, MOROLI KALAN  TEH. & DISTRICT - BHARATPUR   9694235107  749  Active  05-02-2015    232.68  133.91 
710 1364 Prashan Kumar 2014-Vakrangee-Bharatpur IT KENDRA, BILOTHI  TEHSIL & DISTRICT - BHARATPUR   8696620636  10  Active  05-02-2015    429.66  0.00 
711 1365 Rohtash Kumar 2014-Vakrangee-Bharatpur KASAI MOHALLA, PAHARI  BHARATPUR   8058273926  75  Active  06-02-2015    180.64  11.77 
712 1366 Neeraj Kumar Sharma 2014-Vakrangee-Bharatpur Kaman Bypass Road Neem Ghata Mohalla Deeg    9414695025  743  Active  06-02-2015    870.85  0.00 
713 1367 Kapil Khandelwal 2014-Vakrangee-Bharatpur SHRI RADHE COMMUNICATION, NEW MANDI  BHARATPUR   8890525962  37  Active  06-02-2015    269.53  288.39 
714 1368 Anand Kumar 2014-Vakrangee-Bharatpur SHASHTRI SHALA ROAD, NAGAR  BHARATPUR   Active  06-02-2015    .9  28.70 
715 1369 Rajendra Singh 2014-Vakrangee-Bharatpur AZADPURA, CHAK DHARSONI  WEIR, BHARATPUR undefined  9694508308  296  Active  06-02-2015    .42  1415.65 
716 1370 Surjeet Singh 2014-Vakrangee-Bharatpur NEWADA, WEIR  BHARATPUR   9928002775  446  Active  06-02-2015    .27  0.00 
717 1371 Braj Gopal 2014-Vakrangee-Bharatpur ALIPUR, BHUSAWAR BHARATPUR   8290853081  8790  Active  06-02-2015    .34  1013.91 
718 1372 Rakesh Kumar 2014-Vakrangee-Bharatpur RUNDH IKRAN,SEWAR  BHARATPUR   8432670342  135  Active  06-02-2015    73.82  0.00 
719 1373 Harish Kumar 2014-Vakrangee-Bharatpur V & P - JAGHINA, BHARATPUR    9509847007  19882  Active  06-02-2015    .08  1109.56 
720 1374 Vishambhar Singh 2014-Vakrangee-Bharatpur Tyohari,Weir Bharatpur   9414388760  Active  06-02-2015    2.71  105.22 
721 1375 Govind Sharan 2014-Vakrangee-Bharatpur MAIN BAZAR, OLD SABJI MANDI  DEEG, BHARATPUR undefined  8290540930  21  Active  06-02-2015    .62  0.00 
722 1380 Ramakant Sharma 2014-Vakrangee-Bharatpur Sirrond,Rupbas Bharatpur   9982679225  13  Active  11-02-2015    25.14  1520.87 
723 1382 Rahul Saini 2014-Vakrangee-Bharatpur VPO-Jhanjhar,Block-Nagar Distt.-Bharatpur   8875023726  Active  12-02-2015    131.7  0.00 
724 1388 Lalit Kumar 2014-Vakrangee-Bharatpur NEAR SARAS CHAURAHA, VIJAY NAGAR  BHARATPUR   8058845059  195  Active  18-02-2015    18.68  33.48 
725 1400 Dharmendra Kumar 2014-Vakrangee-Bharatpur VPO Pahari Teh. Pahari Bharatpur    9694816516  2848  Active  19-02-2015    .01  11.23 
726 1401 Gajendra Singh Chandel 2014-Vakrangee-Bharatpur अटल सेवा केंद्र ग्राम गुहाना तहसील डीग जिला भरतपुर    9694826177  368  Active  19-02-2015    -.85  100.43 
727 1402 Rahul Dev 2014-Vakrangee-Bharatpur WARD NO. 03, PAHARI  BHARATPUR   950953507  Active  19-02-2015    66.9  1877.65 
728 1404 Ram Kishan 2014-Vakrangee-Bharatpur V&P- JATOLI RATHBHAN, BLOCK- SEWAR  BHARATPUR   8432422135  10  Active  19-02-2015    71.89  0.00 
729 1409 Vikas Kumar Khandelwal 2014-Vakrangee-Bharatpur Rajiv Gandhi Seva Kendra Panhori    8058926340  14  Active  19-02-2015    47.33  19.13 
730 1410 Umesh Chand 2014-Vakrangee-Bharatpur V&P PAR, BLOCK- SEWAR  BHARATPUR   9887750088  137  Active  19-02-2015    34.73  0.00 
731 1411 Dhanpal Singh 2014-Vakrangee-Bharatpur V&P- KATHAUL, PAHARI  BHARATPUR   9680428449  61  Active  19-02-2015    .07  353.91 
732 1417 Pavan Kumar 2014-Vakrangee-Bharatpur RANG REG GALI, RUDAWAL  RUPBAS, BHARATPUR undefined  8505083434  1587  Active  20-02-2015    676.01  353.91 
733 1436 Saikool 2014-Vakrangee-Bharatpur Village-Nagla Kulwana Teh.-Kaman Bharatpur    9660560986  100  Active  02-03-2015    24.78  0.00 
734 1441 Deshraj Saini 2014-Vakrangee-Bharatpur NEAR RAM MANDIR, KHERLI ROAD  NAGAR, BHARATPUR undefined  7891390330  664  Active  02-03-2015    3.36  23.91 
735 1448 Mahendra Singh 2014-Vakrangee-Bharatpur VPO-HATEEJAR TEH WEIR DIST BHARATPUR    9414654341  1207  Active  11-03-2015    -.81  28.70 
736 1462 Manoj Kumar 2014-Vakrangee-Bharatpur Pingora, Nadbai  Bharatpur   9166679417  593  Active  17-03-2015    36.31  4.78 
737 1517 CSC Sinsini 2014-Vakrangee-Bharatpur Village - Sinsini Block - Deeg,GP -Sinsini Tehsil - Deeg  9024261121  3063  Active  26-03-2015    14.99  4.78 
738 1518 CSC Bahaj 2014-Vakrangee-Bharatpur Village - Bahaj block - Deeg,GP-Bahaj Tehsil - Deeg  9783105695  747  Active  26-03-2015    .53  4152.25 
739 1519 CSC Hantra 2014-Vakrangee-Bharatpur Village - Hantra Block - Nadbai, GP -Hantra Tehsil - Nadbai  9887241930  869  Active  26-03-2015    2275.07  832.17 
740 1520 CSC Rudawal 2014-Vakrangee-Bharatpur Village - Rudawal Block - Rupbas,GP -Rudawal Tehsil - Rupbas  05645274384  22  Active  26-03-2015    .67  1534.26 
741 1521 CSC Uchchain 2014-Vakrangee-Bharatpur Village - Uchchain Block - Rupbas,GP -Uchchen Tehsil - Rupbas  8058231977  119  Active  26-03-2015    6.3  0.00 
742 1522 CSC Chiksana 2014-Vakrangee-Bharatpur Village - Chiksana Block - Sewar,GP -Chiksana Tehsil -Bharatpur  9828294579  42  Active  26-03-2015    .94  2874.34 
743 1523 CSC Nithar 2014-Vakrangee-Bharatpur Village - Nithar Block - Weir,GP -Nithar Tehsil - Weir  9829173114  Active  26-03-2015    .53  87.19 
744 1524 CSC Kamalpura 2014-Vakrangee-Bharatpur Village - Kamalpura Block - Weir,GP -Kamalpura Tehsil - Weir  9785203822  80  Active  26-03-2015    7.95  258.26 
745 1525 CSC Moloni 2014-Vakrangee-Bharatpur Village - Moloni Block - Weir,GP -Moloni Tehsil - Weir  7568357181  145  Active  26-03-2015    4.7  385.86 
746 1526 CSC Bajhera Kalan 2014-Vakrangee-Bharatpur Village - Bajhera Kalan Block - Weir,GP- Bjera Kalan Tehsil - Bharatpur  9460324222  183  Active  26-03-2015    426.83  0.00 
747 1527 CSC Deewali 2014-Vakrangee-Bharatpur Village - Deewali Block -Weir,GP -Divli Tehsil - Weir  7742053693  Active  26-03-2015    117.85  52.61 
748 1528 CSC Halena 2014-Vakrangee-Bharatpur Village - Halena Block - Weir,GP -Halena Tehsil - Weir  9928134310  1040  Active  26-03-2015    74.63  0.00 
749 1529 CSC Rupbas 2014-Vakrangee-Bharatpur Village - Rupbas Block - Rupbas,GP -Rupbas Tehsil - Rupbas  05645-273027  319  Active  26-03-2015    2105.30 
750 1530 CSC Chhokarwara Kalan 2014-Vakrangee-Bharatpur Village - Chhokarwara Kalan Block - Weir Bharatpur  9785358031  589  Active  26-03-2015    .87  1958.95 
751 1531 CSC Mai 2014-Vakrangee-Bharatpur Village - Mai  Block - Nadbai Bharatpur  9783015108  26  Active  26-03-2015    376.48  210.43 
752 1532 CSC barauli Chhar 2014-Vakrangee-Bharatpur Village-Barauli Chhar Block-Nadbai Bharatpur  9660985921  234  Active  26-03-2015    .67  330.00 
753 1534 CSC pahari 2014-Vakrangee-Bharatpur Village-Pahari Block-Nagar Bharatpur  8890198658  1682  Active  26-03-2015    119.44  133.91 
754 1536 CSC ludhabai 2014-Vakrangee-Bharatpur Village-Ludhabai Block-Sewar Bharatpur  9166767525  1228  Active  26-03-2015    3.6  1731.30 
755 1539 CSC Kanawar 2014-Vakrangee-Bharatpur Village - Kanawar Block - Bayana Bharatpur  9828300711  4367  Active  26-03-2015    100.82  870.43 
756 1540 CSC Janoothar 2014-Vakrangee-Bharatpur Village-Janoothar Block-Deeg Bharatpur  7597797506  21  Active  26-03-2015    .3  110.00 
757 1542 CSC Bahnera 2014-Vakrangee-Bharatpur Village-Bahnera Block-Sewar Bharatpur  8561985295  1920  Active  26-03-2015    .99  0.00 
758 1545 CSC Seedpur 2014-Vakrangee-Bharatpur Village - Seedpur Block - Bayana Bharatpur  9799081802  574  Active  26-03-2015    411.27  358.70 
759 1547 CSC Sikrori 2014-Vakrangee-Bharatpur Village - Sikrori Block - Kumher Bharatpur  9414327298  Active  26-03-2015    751.63  150.94 
760 1550 CSC Gulpara 2014-Vakrangee-Bharatpur Village - Gulpara Block - Nagar,GP -Gulpada Tehsil - Nagar  9649498388  11  Active  26-03-2015    69.64  28.70 
761 1551 Csc Khera Thakur 2014-Vakrangee-Bharatpur Village-Khera Thakur Block-Rupbas District-Bharatpur   8824365595  47  Active  26-03-2015    292.5  36.35 
762 1552 Csc Sarsaina 2014-Vakrangee-Bharatpur Village-Sarsaina Block-Weir District-Bharatpur  9636305014  857  Active  26-03-2015    .96  569.13 
763 1553 Csc Bhatpura 2014-Vakrangee-Bharatpur Village-Bhatpura Block-Nagar District-Bharatpur  9672172461  7190  Active  26-03-2015    2732.16  612.17 
764 1555 Csc Seekri Chak No 1 2014-Vakrangee-Bharatpur Village-Seekri Chak No.1 Block-Nagar District-Bharatpur  9950750001  3663  Active  26-03-2015    353.81  1721.74 
765 1556 CSC Palka 2014-Vakrangee-Bharatpur Village - Palka Block - Nagar,GP -Palka Tehsil - Nagar  9828229302  619  Active  26-03-2015    .38  4399.99 
766 1557 CSC Shyorawali 2014-Vakrangee-Bharatpur Village - Shyorawali Block - Deeg,GP -Shyorawali Tehsil - Deeg  9887037190  22  Active  26-03-2015    27.49  0.67 
767 1558 CSC Bedham 2014-Vakrangee-Bharatpur Village - Dedham Block - Deeg,GP - Baidam Tehsil - Deeg  9887050988  9454  Active  26-03-2015    278.7  1143.04 
768 1560 CSC Samogar 2014-Vakrangee-Bharatpur ATAL SEVA KENDRA SAMOGAR,  TEH-BAYANA, DISTRICT- BHARATPUR   9414485885  105  Active  26-03-2015    853.03  0.00 
769 1561 CSC Ubar 2014-Vakrangee-Bharatpur Village- Ubar Block- Kumher District- Bharatpur  9782276183   1138  Active  26-03-2015    .67  990.00 
770 1563 CSC Seekri Chak No 2 2014-Vakrangee-Bharatpur Village- Seekri Chak No 2 Block- Nagar District- Bharatpur  9413994113  347  Active  26-03-2015    .38  1411.82 
771 1564 CSC Berroo 2014-Vakrangee-Bharatpur Village- Berroo Block- Nagar District- Bharatpur  9983740637  910  Active  26-03-2015    -.37  631.30 
772 1565 CSC Shahna 2014-Vakrangee-Bharatpur Village - Shahna Block - Rupbas,GP -Sahna Tehsil - Rupbas  8058592215  60  Active  26-03-2015    148.47  110.00 
773 1571 CSC Dehgawan 2014-Vakrangee-Bharatpur Village- Dehgawan  Block- Bayana  District- Bharatpur  9887919379  318  Active  26-03-2015    2249.16  4245.04 
774 1572 CSC Paramdara 2014-Vakrangee-Bharatpur Village- Paramadara Block- Deeg District- Bharatpur  9413227228  1998  Active  26-03-2015    17.42  248.70 
775 1575 CSC Baroli Chauth 2014-Vakrangee-Bharatpur Village- Baroli Chauth  Block- Deeg  District- Bharatpur  9950866507  865  Active  26-03-2015    .87  396.96 
776 1577 CSC Satwas 2014-Vakrangee-Bharatpur Village- Satwas  Block- Kaman  District- Bharatpur   9982321410  Active  26-03-2015    7.92  24.47 
777 1578 CSC Moonsepur 2014-Vakrangee-Bharatpur Village- Moonsepur  Block- Kaman  District- Bharatpur   9001892350  87  Active  26-03-2015    16.21  0.00 
778 1579 CSC Jurhara 2014-Vakrangee-Bharatpur Village- Jurhara  Block- Kaman  District- Bharatpur  9413878652  49  Active  26-03-2015    .99  468.69 
779 1580 CSC Sablana 2014-Vakrangee-Bharatpur Village- Sablana  Block- Kaman  District- Bharatpur  9413193034  62  Active  26-03-2015    19.55  19.13 
780 1581 CSC Kathaul 2014-Vakrangee-Bharatpur Village- Kathaul  Block- Kaman  District- Bharatpur   9509535906  92  Active  26-03-2015    706.46  0.00 
781 1582 CSC Birharu 2014-Vakrangee-Bharatpur Village- Birharu  Block- Kumher  District- Bharatpur  9785037811  595  Active  26-03-2015    378.39  473.48 
782 1583 CSC Belara Kalan 2014-Vakrangee-Bharatpur Village- Belara Kalan  Block- Kumher  District- Bharatpur  8058521191  4955  Active  26-03-2015    -.05  0.00 
783 1584 CSC Lakhan 2014-Vakrangee-Bharatpur Village- Lakhan  Block- Kumher  District- Bharatpur  9602406517  470  Active  26-03-2015    4.82  330.00 
784 1585 CSC Borai 2014-Vakrangee-Bharatpur Village- Borai  Block- Kumher  District- Bharatpur   9694199137  10  Active  26-03-2015    114.18  9.18 
785 1586 CSC Kurka 2014-Vakrangee-Bharatpur Village- Kurka  Block- Rupbas  District- Bharatpur  9783284432  Active  26-03-2015    -.61  9.57 
786 1587 CSC Malah 2014-Vakrangee-Bharatpur Village- Malah  Block- Sewar  District- Bharatpur   9001668134  1458  Active  26-03-2015    -.72  990.00 
787 1591 CSC KORER 2014-Vakrangee-Bharatpur Village KORER  Block DEEG  District BHARATPUR   9783156574  732  Active  26-03-2015    32.91  1205.22 
788 1593 CSC Ajau 2014-Vakrangee-Bharatpur Village Ajau  Block KUMHER   District BHARATPUR   9286557605  Active  26-03-2015    13.17  0.00 
789 1594 CSC Barauli Ran 2014-Vakrangee-Bharatpur Village Barauli Ran  Block NADBAI  District BHARATPUR   9252730750  Active  26-03-2015    394.07  0.00 
790 1596 CSC Shakkarpur 2014-Vakrangee-Bharatpur Village Shakkarpur  Block RUPBAS  District BHARATPUR   9462355422  905  Active  26-03-2015    1047.21  358.70 
791 1600 CSC Siras 2014-Vakrangee-Bharatpur Village Siras   Block WEIR  District BHARATPUR   9460877014  Active  26-03-2015    72.35  150.17 
792 1601 CSC Bhaiseena 2014-Vakrangee-Bharatpur Village Bhaiseena  Block WEIR  District BHARATPUR   9214944095  78  Active  26-03-2015    19.23  366.35 
793 1602 CSC Samraya 2014-Vakrangee-Bharatpur Village Samraya  Block WEIR  District BHARATPUR   9667808828  940  Active  26-03-2015    .05  426.34 
794 1604 CSC HATAURI 2014-Vakrangee-Bharatpur Village HATAURI   Block WEIR   District BHARATPUR   000000000000  30  Active  26-03-2015    402.95  798.70 
795 1606 CSC Barah Mafi 2014-Vakrangee-Bharatpur Village - Barah Mafi Block - Rupbas GP - Barah Mafi  9680805312  Active  26-03-2015    50.15  14.35 
796 1609 CSC Sahsan 2014-Vakrangee-Bharatpur Village Sahsan  Block KAMAN  District BHARATPUR   96101000045  890  Active  26-03-2015    32.23  0.00 
797 1610 CSC Pichoomar 2014-Vakrangee-Bharatpur Village Pichoomar  Block KUMHER  District BHARATPUR   7737100184  15  Active  26-03-2015    .21  128.75 
798 1611 CSC Peepal Khera 2014-Vakrangee-Bharatpur Village Peepal Khera  Block NAGAR  District BHARATPUR   9772404014  10  Active  26-03-2015    279.55  0.00 
799 1614 CSC Aghapur 2014-Vakrangee-Bharatpur Village Aghapur  Block SEWAR  District BHARATPUR   9549249946  Active  26-03-2015    .33  937.39 
800 1615 CSC Moondota 2014-Vakrangee-Bharatpur Village MOONDOTA   Block SEWAR   District BHARATPUR   9887482598  202  Active  26-03-2015    30.07  813.04 
801 1616 CSC Jahanpur 2014-Vakrangee-Bharatpur Village- Jahanpur Block- Weir  District- Bharatpur   9694265999  15  Active  26-03-2015    .63  0.00 
802 1618 CSC Samai 2014-Vakrangee-Bharatpur Village Samai  Block DEEG  District BHARATPUR   9509535226  3653  Active  26-03-2015    .94  86.09 
803 1620 CSC Pai 2014-Vakrangee-Bharatpur Village Pai  Block KAMAN  District BHARATPUR   9413309008  1898  Active  26-03-2015    294.39  0.00 
804 1622 CSC Gopalgarh 2014-Vakrangee-Bharatpur Village Gopalgarh  Block NAGAR  District BHARATPUR   9983757532  149  Active  26-03-2015    75.58  0.00 
805 1624 CSC Dahina Gaon 2014-Vakrangee-Bharatpur Village Dahina Gaon  Block RUPBAS  District BHARATPUR   9983650149  1838  Active  26-03-2015    10.92  1037.82 
806 1626 CSC Sanwler 2014-Vakrangee-Bharatpur Village- Sanwler Block- Kaman  District- Bharatpur  9982052204  273  Active  26-03-2015    13.79  0.00 
807 1627 CSC Bilang 2014-Vakrangee-Bharatpur Village- Bilang Block- Kaman  District- Bharatpur  8504075123  Active  26-03-2015    13.26  0.00 
808 1628 CSC Koomha (Khumer) 2014-Vakrangee-Bharatpur Village- Koomha  Block- Kumher  District- Bharatpur  9887438336  1114  Active  26-03-2015    202.72  562.43 
809 1629 CSC Bachhamadi 2014-Vakrangee-Bharatpur Village- Bachhamadi Block- Nadbai District- Bharatpur  9680669629  41  Active  26-03-2015    271.38  0.00 
810 1631 CSC Taraudar 2014-Vakrangee-Bharatpur Village- Taraudar  Block- Nagar District- Bharatpur  9783527827  28  Active  26-03-2015    238.24  28.07 
811 1632 CSC Tuhiya 2014-Vakrangee-Bharatpur Village- Tuhiya  Block- Sewar  District- Bharatpur  9887934359  1472  Active  26-03-2015    505.26  1386.96 
812 1633 CSC Naroli 2014-Vakrangee-Bharatpur Village- Naroli Block- Bayana  District- Bharatpur  9799726525  111  Active  26-03-2015    5865.45  57.39 
813 1635 CSC Khanuan 2014-Vakrangee-Bharatpur Village - khanuan Block - Rupbas  Bharatpur  8003617737  Active  26-03-2015    .22  28.70 
814 1636 CSC Atari 2014-Vakrangee-Bharatpur Village- Atari Block- Nadbai District- Bharatpur  9414377002  952  Active  26-03-2015    101.58  51.15 
815 1637 CSC Iklahra 2014-Vakrangee-Bharatpur Village- Iklahra  Block- Deeg District- Bharatpur  9414711355  10  Active  26-03-2015    133.85  0.11 
816 1638 CSC Karhi 2014-Vakrangee-Bharatpur Village- Karhi Block- Nadbai District- Bharatpur  9950324526  90  Active  26-03-2015    628.96  148.26 
817 1644 CSC Chhichharwari 2014-Vakrangee-Bharatpur Village- Chhichharwari Block- Kaman  District- Bharatpur  9828523499  65  Active  26-03-2015    153.42  0.00 
818 1647 CSC Nyotha 2014-Vakrangee-Bharatpur Village- Nyotha  Block- Nadbai District- Bharatpur  05643275505  39  Active  26-03-2015    86.84  723.13 
819 1649 CSC Kheri Devisingh 2014-Vakrangee-Bharatpur Village- Kheri Devisingh  Block- Nadbai  District- Bharatpur  9887395295  747  Active  26-03-2015    .42  157.83 
820 1650 CSC Piprau 2014-Vakrangee-Bharatpur Village- Piprau Block- Nadbai District- Bharatpur  8442076861  12  Active  26-03-2015    24.86  0.00 
821 1654 CSC Undra 2014-Vakrangee-Bharatpur Village- Undra  Block- Sewar  District- Bharatpur  7742257001  563  Active  26-03-2015    .72  967.04 
822 1656 CSC Lakhanpur (Weir) 2014-Vakrangee-Bharatpur Village- Lakhanpur Block- Weir  District- Bharatpur  9782635066  977  Active  26-03-2015    .34  71.74 
823 1657 CSC Moodiya Laleeta 2014-Vakrangee-Bharatpur Village- Moodiya Laleeta Block- Weir  District- Bharatpur  9414758409  21  Active  26-03-2015    .36  19.13 
824 1660 CSC Jatmasi 2014-Vakrangee-Bharatpur Village JATMASI  Block RUPBAS  District BHARATPUR   8058932026  216  Active  26-03-2015    278.93  0.00 
825 1661 CSC Ajan 2014-Vakrangee-Bharatpur Village Ajan  Block KUMHER  District BHARATPUR   9887687712  4013  Active  26-03-2015    .7  679.13 
826 1663 CSC Bhatawali 2014-Vakrangee-Bharatpur Village BHATAWALI  Block KUMHER  District BHARATPUR   9530446606  153  Active  26-03-2015    15.05  4.78 
827 1666 CSC Barauli Dhau 2014-Vakrangee-Bharatpur Village- Barauli Dhau Block- Kaman District- Bharatpur  9636033448  605  Active  26-03-2015    -.6  0.00 
828 1668 CSC Jagarka 2014-Vakrangee-Bharatpur Village- Jagarka Block- Nagar  District- Bharatpur    Active  26-03-2015    126.75  0.00 
829 1670 CSC Badri 2014-Vakrangee-Bharatpur Village BADRI  Block DEEG  District BHARATPUR   9875298827  497  Active  26-03-2015    5.14  339.56 
830 1672 CSC Bilond 2014-Vakrangee-Bharatpur Village BILOND  Block KAMAN  District BHARATPUR   9875114960  19  Active  26-03-2015    30.38  0.00 
831 1676 CSC Noharda 2014-Vakrangee-Bharatpur Village NOHARDA  Block RUPBAS  District BHARATPUR   9413510642  1436  Active  26-03-2015    9.16  377.83 
832 1677 CSC PHULWARA 2014-Vakrangee-Bharatpur Village PHULWARA  Block SEWAR  District BHARATPUR   05644220663  1038  Active  26-03-2015    306.15  832.51 
833 1679 CSC BRAHMAWAD 2014-Vakrangee-Bharatpur Village BRAHMAWAD  Block BAYANA  District BHARATPUR   05648232035  3950  Active  26-03-2015    33.48  363.48 
834 1681 CSC Sooti 2014-Vakrangee-Bharatpur Village SOOTI  Block SEWAR  District BHARATPUR   8094749430  37  Active  26-03-2015    16.61  0.00 
835 1682 CSC Jagheena (Rural) 2014-Vakrangee-Bharatpur Village- Jagheena (Rural) Block- Sewar  District- Bharatpur  9782633090  Active  26-03-2015    .51  166.15 
836 1683 CSC Naunera 2014-Vakrangee-Bharatpur Village Naunera  Block KAMAN  District BHARATPUR   9782528569  Active  26-03-2015    .48  0.00 
837 1684 CSC Udaka 2014-Vakrangee-Bharatpur Village Udaka  Block KAMAN  District BHARATPUR   9887770292  1321  Active  26-03-2015    257.58  382.61 
838 1685 CSC Helak 2014-Vakrangee-Bharatpur Village Helak  Block KUMHER  District BHARATPUR   9414889065  525  Active  26-03-2015    27.22  0.00 
839 1686 CSC RANDHEERGARH 2014-Vakrangee-Bharatpur Village RANDHEERGARH  Block WEIR  District BHARATPUR   9828356625  333  Active  26-03-2015    .66  0.00 
840 1688 CSC Khan Surjapura 2014-Vakrangee-Bharatpur village khan surjapura block rupbas District bharatpur  9929935890  558  Active  26-03-2015    -.02  588.26 
841 1689 CSC Ghatri 2014-Vakrangee-Bharatpur Village Ghatri Block Weir District Bharatpur  000000000000  21  Active  26-03-2015    .2  1648.09 
842 1690 CSC Vaulkhera 2014-Vakrangee-Bharatpur Village Vaulkhera  Block KAMAN  District BHARATPUR   9928280228  13  Active  26-03-2015    -.92  0.11 
843 1691 CSC Daurda 2014-Vakrangee-Bharatpur Village Daurda  Block RUPBAS  District BHARATPUR   7300130706  Active  26-03-2015    .86  52.61 
844 1693 CSC Sundrawali 2014-Vakrangee-Bharatpur Village- Sundrawali Block- Nagar  District- Bharatpur  9261767670  943  Active  26-03-2015    361.68  0.00 
845 1696 CSC Pahua 2014-Vakrangee-Bharatpur Village- Pahua  Block- Kumher  District- Bharatpur  9784058944  177  Active  26-03-2015    37.25  76.52 
846 1697 CSC Kakrala 2014-Vakrangee-Bharatpur Village- Kakrala Block- Nagar District- Bharatpur  9828672146  1360  Active  26-03-2015    .48  172.17 
847 1698 CSC Dawak 2014-Vakrangee-Bharatpur Village- Dawak Block- Nagar District- Bharatpur  9610562668  2019  Active  26-03-2015    609.62  848.67 
848 1700 CSC Andhiyari 2014-Vakrangee-Bharatpur Village- Andhiyari Block- Rupbas District- Bharatpur  9950324410  1339  Active  26-03-2015    5.5  1013.91 
849 1701 CSC Bhawanpura 2014-Vakrangee-Bharatpur Village- Bhawanpura Block- Rupbas District- Bharatpur  9828223330  Active  26-03-2015    418.14  0.00 
850 1703 CSC Madhoni 2014-Vakrangee-Bharatpur Village- Madhoni Block- Sewar District- Bharatpur  9414895963  10  Active  26-03-2015    78.94  0.00 
851 1705 CSC Santrook 2014-Vakrangee-Bharatpur Village- Santrook Block- Kumher District- Bharatpur  9982774208  896  Active  26-03-2015    346.51  521.30 
852 1706 CSC Therawar 2014-Vakrangee-Bharatpur Village- Therawar Block- Kumher District- Bharatpur  9772922025  547  Active  26-03-2015    .43  167.39 
853 1707 CSC Ranph 2014-Vakrangee-Bharatpur Village- Ranph Block- Nagar District- Bharatpur  7891634369  377  Active  26-03-2015    .23  994.78 
854 1709 CSC Matooki 2014-Vakrangee-Bharatpur Village- Matooki Block- Nagar District- Bharatpur  8058603373  1947  Active  26-03-2015    236.27  0.00 
855 1710 CSC Nabhera 2014-Vakrangee-Bharatpur Village- Nabhera Block- Rupbas District- Bharatpur  9694147825  716  Active  26-03-2015    1.43  1516.08 
856 1711 CSC Padalwas 2014-Vakrangee-Bharatpur Village- Padalwas Block- Nagar District- Bharatpur  9982320886  715  Active  26-03-2015    170.2  14.35 
857 1721 CSC Bodoli 2014-Vakrangee-Bharatpur Village- Bodoli Block- Nagar  District- Bharatpur  9587774983  41  Active  26-03-2015    .85  9.57 
858 1723 CSC Kasot_WRS 2014-Vakrangee-Bharatpur Village- Kasot Block- Deeg District- Bharatpur  9950306770  762  Active  26-03-2015    1.83  1150.69 
859 1724 CSC Maloni_WRS 2014-Vakrangee-Bharatpur Village- Maloni Block- Rupbas District- Bharatpur  9667063033  96  Active  26-03-2015    1.74  0.00 
860 1726 CSC Khangri_WRS 2014-Vakrangee-Bharatpur Village- Khangri Block- Nadbai District- Bharatpur  9784436739  106  Active  26-03-2015    .46  0.00 
861 1729 CSC Daulatgarh 2014-Vakrangee-Bharatpur Village- Daulatgarh Block- Rupbas District- Bharatpur  8058253021  Active  26-03-2015    754.31  1190.87 
862 1731 CSC Uchchain 2014-Vakrangee-Bharatpur Village - Uchchain Block - Rupbas Dist. - Bharatpur  9928892871  844  Active  26-03-2015    .73  1289.39 
863 1732 CSC Paharpur 2014-Vakrangee-Bharatpur Village - Paharpur Block - Rupbas Dist. - Bharatpur  9610374499  1498  Active  26-03-2015    -.6  564.46 
864 1733 CSC Rundh Rupbas 2014-Vakrangee-Bharatpur Village - Rundh Rupbas Block - Rupbas Dist. - Bharatpur  0000000  113  Active  26-03-2015    .86  1559.85 
865 1734 CSC Rupbas_WRS 2014-Vakrangee-Bharatpur Village - Rupbas Block - Rupbas Dist. - Bharatpur  9828863302  327  Active  26-03-2015    239.03  1167.29 
866 1735 CSC Rudawal 2014-Vakrangee-Bharatpur Vilage - Rudawal Block - Rupbas Dist. - Bharatpur  9610023242  709  Active  26-03-2015    3500.78  377.83 
867 1737 CSC NAWLI 2014-Vakrangee-Bharatpur Village-NAWLI BLOCK -BAYANA DIS- BHARATPUR  9001558722  43  Active  26-03-2015    541.82  129.13 
868 1738 CSC KUCHAWATI 2014-Vakrangee-Bharatpur Village-KUCHAWATI BLOCK -DEEG DIS- BHARATPUR  9875144247  584  Active  26-03-2015    85.6  19.08 
869 1740 CSC BAMANWARI 2014-Vakrangee-Bharatpur Village-BAMANWARI BLOCK -KAMAN DIS- BHARATPUR  9785707577  322  Active  26-03-2015    659.53  124.35 
870 1741 CSC GHATMEEKA 2014-Vakrangee-Bharatpur Village-GHATMEEKA BLOCK -KAMAN DIS- BHARATPUR  8094797171  836  Active  26-03-2015    3116.58  5739.13 
871 1742 CSC PIPRAU 2014-Vakrangee-Bharatpur Village-PIPRAU BLOCK -NADBAI DIS- BHARATPUR  9166662311  Active  26-03-2015    211.35  282.17 
872 1743 CSC LAKHANPUR 2014-Vakrangee-Bharatpur Village-LAKHANPUR BLOCK -NADBAI DIS- BHARATPUR  9414214046  1696  Active  26-03-2015    -.4  507.29 
873 1745 CSC IBRAHIMPUR 2014-Vakrangee-Bharatpur Village-IBRAHIMPUR BLOCK -RUPBAS DIS- BHARATPUR  9772543150  15  Active  26-03-2015    112.57  0.00 
874 1746 CSC BANSI KUURD 2014-Vakrangee-Bharatpur Village-BANSI KUURD BLOCK -SEWAR DIS- BHARATPUR  9875008565  319  Active  26-03-2015    3.41  593.04 
875 1747 CSC PATHENA 2014-Vakrangee-Bharatpur Village-PATHENA BLOCK -WEIR DIS- BHARATPUR  9461247513  2453  Active  26-03-2015    146.22  62.17 
876 1749 JSS Infotech emitra center 2014-Vakrangee-Bharatpur Near SRS College  Block Kumher  Bharatpur  9950192400  3207  Active  26-03-2015    15.68  22.43 
877 1750 Kuldeep Emitra Center 2014-Vakrangee-Bharatpur Infront of Zila Parishad Shop No. 1 Krishana Nagar Bharatpur  9887149141  20907  Active  26-03-2015    .32  3585.99 
878 1751 Tamanna Emitra Center 2014-Vakrangee-Bharatpur Shop No. 15 Collectrate Campus Near S.B.B.J Collectrate Branch Bharatpur  000000000  4047  Active  26-03-2015    .02  9717.53 
879 1752 Anuj eMitra 2014-Vakrangee-Bharatpur 82, Ekta Vihar Colony Sunkh Road Bharatpur  000000000  885  Active  26-03-2015    .37  186.52 
880 1754 City eMitra Center 2014-Vakrangee-Bharatpur Near Siki Wale Hanuman Mandir Mandi Alal Bandh  Bharatpur  05644220341  2088  Active  26-03-2015    43.05  3723.73 
881 1755 Rakesh eMitra Center 2014-Vakrangee-Bharatpur Shop No-1 Near Panchayat Samiti Blcok-Nadbai Bharatpur  05643275050  15750  Active  26-03-2015    .69  16170.46 
882 1756 Anil Emitra 2014-Vakrangee-Bharatpur Jain Book Depot Block Bayana District- Bharatpur   05648225200  530  Active  26-03-2015    .9  248.70 
883 1757 Gaurav eMitra 2014-Vakrangee-Bharatpur Koli Pada Caabkari Mohalla NAi Sadak Deeg Bharatpur  9414715893  1093  Active  26-03-2015    .57  856.80 
884 1758 Sony eMitra Center 2014-Vakrangee-Bharatpur Near Jageshwar Mandir Kumher Bharatpur   9024728351  245  Active  26-03-2015    .83  2128.26 
885 1759 Balaji emitra Center Nadbai 2014-Vakrangee-Bharatpur Balaji Printing Press  Nagar Road Nadbai  9785578785  1957  Active  26-03-2015    .14  1061.74 
886 1760 Shri Radhey Mohan eMitra Center 2014-Vakrangee-Bharatpur Natani Mohalla Deeg Bharatpur  9887905192  656  Active  26-03-2015    502.24  836.96 
887 1761 Dakshita eMitra Center 2014-Vakrangee-Bharatpur Infront of Mohanji Mandir Budh ki Haat Bharatpur  9413916336  15185  Active  26-03-2015    .16  210.43 
888 1838 Mevaram 2014-Vakrangee-Bharatpur atal Seva kendra kapura, malooka    8290695834  20  Active  13-04-2015    656.49  0.00 
889 1842 Laxmi Narayan Gaur 2014-Vakrangee-Bharatpur Atal Seva Kendra Ghosinga Kaman Bharatpur    9982906461  1345  Active  13-04-2015    -.46  48.25 
890 1843 Narendra Kumar 2014-Vakrangee-Bharatpur Atal Seva Kendra Vpo Uadki Dalla Nagar Bharatpur    8502921843  3778  Active  13-04-2015    603.11  1077.74 
891 1844 Sanjay Kumar 2014-Vakrangee-Bharatpur Atal Seva Kendra Dayana Ka Bass Khohri Nagar Bharatpur     9772925002  Active  13-04-2015    .32  0.00 
892 1880 Chandra Shekhar 2014-Vakrangee-Bharatpur Vill- madapura,rupbas bharatpur   9694325981  Active  16-04-2015    .82  0.00 
893 1881 Anil Kumar 2014-Vakrangee-Bharatpur Vill- Fatehpur,Rupbas bharatpur   9460291176  242  Active  16-04-2015    -.93  0.11 
894 1882 Ravindra Singh 2014-Vakrangee-Bharatpur Vill- Vinaua,Rupbas Bharatpur   9602931193  Active  16-04-2015    21.27  0.00 
895 1884 Santosh Kumar 2014-Vakrangee-Bharatpur VPO-Akhaigarh the-nadbai dist-bharatpur    9887472471  47  Active  16-04-2015    4.32  153.04 
896 1885 Ram Sahay 2014-Vakrangee-Bharatpur VPO-Nayabas the-nadbai dist-bharatpur    9785190846  1133  Active  16-04-2015    318.65  43.04 
897 1890 Rajneesh 2014-Vakrangee-Bharatpur Vill-Ajit nagar post-Dharsoni the-weir dist-bharatpur    9828571484  175  Active  16-04-2015    -.22  76.52 
898 1892 Vishnu Kumar 2014-Vakrangee-Bharatpur Vill- chulera, Tehsil - Deeg    9887691796  Active  16-04-2015    3.91  0.00 
899 1896 Ghanshyam Singh 2014-Vakrangee-Bharatpur Near Petrol Pump    9982183871  239  Active  16-04-2015    .48  234.35 
900 1897 Jitendra Kumar 2014-Vakrangee-Bharatpur Dumriya,Roopbas Bharatpur   9928208514  Active  16-04-2015    11.97  0.00 
901 1898 Khajan Singh 2014-Vakrangee-Bharatpur Ghata,Aodal Gaddi Rupbas,Bharatpur undefined  8432303126  1382  Active  16-04-2015    .43  186.52 
902 1900 Suresh Chand 2014-Vakrangee-Bharatpur VPO Malah Sawer Bharatpur    1296  Active  16-04-2015    956.46  66.96 
903 1901 Devendra Singh 2014-Vakrangee-Bharatpur VPO-KHATAUTI TEH-NADBAI DIST-BHARATPUR    9785156162  10  Active  16-04-2015    2393.19  38.26 
904 1902 Vishnu Kumar 2014-Vakrangee-Bharatpur VPO Chulera Deeg Bharatpur    9549869225  357  Active  16-04-2015    -.68  191.30 
905 1903 Devendra Singh 2014-Vakrangee-Bharatpur VPO Pasta Deeg Bharatpur    8058521363  26  Active  16-04-2015    140.69  344.68 
906 1904 Kumar Singh 2014-Vakrangee-Bharatpur VPO Khohri Deeg Bharatpur    9587994507  147  Active  16-04-2015    -.98  9.57 
907 1905 Virendra Pal Singh 2014-Vakrangee-Bharatpur VPO Khohri Deeg Bharatpur    7597756933  Active  16-04-2015    333.97  0.00 
908 1906 Pradeep Kumar 2014-Vakrangee-Bharatpur Dhaulet Kaman Bharatpur    9610020647  1794  Active  16-04-2015    276.99  0.00 
909 1907 Rameej Khan 2014-Vakrangee-Bharatpur Kherli Manna Pahari Nagar    9610020647  289  Active  16-04-2015    8965.41  210.43 
910 1910 Sunil Kumar 2014-Vakrangee-Bharatpur G.P. KHANUA, ROOPBAS BHARATPUR   8441083556  702  Active  16-04-2015    -.11  459.13 
911 1911 Jandail Singh 2014-Vakrangee-Bharatpur G.P. DHANA KHERLI, ROOPBAS  BHARATPUR   9784489724  2657  Active  16-04-2015    478  76.52 
912 1912 Gopal Singh 2014-Vakrangee-Bharatpur VILL-JAHANPUR POST-MOLONI TEH-WEIR DIST-BHARATPUR    9667902928  22  Active  16-04-2015    106.26  66.96 
913 1913 Harish Chand 2014-Vakrangee-Bharatpur VPO-KARILI TEH-NADBAI DIST-BHARATPUR RAJ    9828354550  3799  Active  16-04-2015    .85  631.30 
914 1914 Sonu Singh 2014-Vakrangee-Bharatpur VPO-RAYSIS TEH-NADBAI DIST-BHARATPUR RAJ     7891285253  53  Active  16-04-2015    13.39  13.97 
915 1915 Sunil Kumar 2014-Vakrangee-Bharatpur VPO-GANGAROLI TEH-NADBAI DIST-BHARATPUR     9929273597  33  Active  16-04-2015    89.63  0.00 
916 1916 Jeetendra Singh 2014-Vakrangee-Bharatpur VPO-ENCHERA TEH-NADBAI DIST-BHARATPUR RAJ.    9636948833  645  Active  16-04-2015    1513.82  57.39 
917 1917 Lalaram Saini 2014-Vakrangee-Bharatpur VPO-AKHAIGARH TEH-NADBAI DIST-BHARATPUR RAJ.321614    8107612481  32  Active  16-04-2015    21.09  19.46 
918 1918 Rambabu 2014-Vakrangee-Bharatpur G.P. SENDHLI, BHUSAWAR  BHARATPUR   9782635464  17  Active  16-04-2015    3.1  348.89 
919 1919 Ajaharuddeen 2014-Vakrangee-Bharatpur Atal Seva Kendra Teski Nagar Bharatpur    9587911862  1662  Active  16-04-2015    2281.7  148.47 
920 1922 Kanhiya Lal 2014-Vakrangee-Bharatpur Atal Sewa Kendra Satwari,Pahari Nagar ,Bharatpur undefined  9694217678  140  Active  16-04-2015    .67  440.11 
921 1941 Mahipal Singh 2014-Vakrangee-Bharatpur VPO Shyourawali Deeg Bharatpur    9828659838  322  Active  17-04-2015    274.27  353.91 
922 1943 Saleem 2014-Vakrangee-Bharatpur Village- Ghari Jhil Patti , Kaman    9783322056  241  Active  17-04-2015    65.05  0.00 
923 1960 Kuldeep Singh 2014-Vakrangee-Bharatpur VPO-ALIPUR TEH-WEIR DIST-BHARATPUR RAJ.    9252535610  4008  Active  20-04-2015    .14  0.00 
924 1961 Subhash Chand 2014-Vakrangee-Bharatpur VPO-NAROLI TEH-WEIR DIST-BHARATPUR RAJ    7891273172  Active  20-04-2015    1633.69  0.00 
925 1970 Sahil 2014-Vakrangee-Bharatpur VILL.-LEVDATEH.-KAMANDIST.-BHARATPUR    8302391952  690  Active  24-04-2015    -.53  220.00 
926 1971 Manuj 2014-Vakrangee-Bharatpur Atal Sewa Kendra Sahsan,Kaman Bharatpur   9982484243  136  Active  24-04-2015    714.46  267.83 
927 1974 Sukhveer Singh 2014-Vakrangee-Bharatpur BHANDRA, KAMAN  BHARATPUR   9680687275  20  Active  24-04-2015    75.2  9.57 
928 1982 Rajeev 2014-Vakrangee-Bharatpur Bodoli Dahar Nagar Bharatpur    9772131500  505  Active  27-04-2015    -.5  994.78 
929 1985 Amajad Khan 2014-Vakrangee-Bharatpur Udki Dalla Nagar Bharatpur    9783421642  477  Active  27-04-2015    438.73  210.43 
930 1987 Preeti Rani 2014-Vakrangee-Bharatpur G.P. SATWAS, KAMAN  BHARATPUR   9571941818  80  Active  27-04-2015    44.01  100.43 
931 1988 Jeetendra Singh 2014-Vakrangee-Bharatpur Atal Sewa Kendra, Kharera, GP- Kharera, Roopwas     9667424562  1496  Active  27-04-2015    1615.31  181.74 
932 1989 Satyendra Kumar 2014-Vakrangee-Bharatpur G.P. KHAKHAWALI, NAGAR  BHARATPUR   9785549716  Active  27-04-2015    313.37  0.00 
933 1991 Jagveer Singh 2014-Vakrangee-Bharatpur Palka,Nagar  Bharatpur   9610077616  978  Active  27-04-2015    488.85  1195.65 
934 1992 Robin 2014-Vakrangee-Bharatpur Vill-Ladamka,Pahari Nagar,Bharatpur undefined  8769665665  60  Active  27-04-2015    8.8  0.00 
935 1993 Gopi Kamwar 2014-Vakrangee-Bharatpur Vill. DHANWADA GP.-DHANWADATEH. KUMHERDIST. BHARATPUR    7665903596  57  Active  27-04-2015    918.29  162.61 
936 1994 Tirthendra Kumar 2014-Vakrangee-Bharatpur NEAR OF BIHARI JI TEMPLE, MAHAL KHAS ROAD  KILA, BHARATPUR undefined  9414208420  473  Active  27-04-2015    284.8  7.32 
937 1995 Ravi Kant 2014-Vakrangee-Bharatpur Vill Jhitaredi Nagar Bharatpur    8239735599  33  Active  27-04-2015    5.94  1.43 
938 1996 Shailendra Kumar 2014-Vakrangee-Bharatpur Near Panchayat Samati Rupbas    05645273071  673  Active  27-04-2015    94.16  4313.67 
939 1997 Jiwaram 2014-Vakrangee-Bharatpur Near Peer Mohalla Kaman    7568394564  3232  Active  27-04-2015    .69  455.78 
940 2000 Farram Khan 2014-Vakrangee-Bharatpur OLANDA, KAMAN  BHARATPUR   9929170950  18  Active  27-04-2015    746.8  9.57 
941 2001 Ansar Ahmad 2014-Vakrangee-Bharatpur UDAKA, KAMAN  BHARATPUR   9667924143  40  Active  27-04-2015    17.69  0.00 
942 2002 Ajam Ali 2014-Vakrangee-Bharatpur MOONSEPUR,KAMAN Bharatpur   9887355386  382  Active  27-04-2015    .17  28.70 
943 2004 Govind Singh 2014-Vakrangee-Bharatpur KANWARA, KAMAN  BHARATPUR   9875177264  Active  27-04-2015    43.72  49.93 
944 2005 Aneesh 2014-Vakrangee-Bharatpur BHORI, PAHARI  BHARATPUR   9887936012  Active  27-04-2015    3159.79  0.00 
945 2006 Janish Khan 2014-Vakrangee-Bharatpur GARHAJAN, KAMAN  BHARATPUR   9413157862  15  Active  27-04-2015    38.33  0.00 
946 2009 Ramavatar Gurjar 2014-Vakrangee-Bharatpur PALLA, KAMAN  BHARATPUR   9875161441  569  Active  27-04-2015    4486.87  0.00 
947 2010 Tarif Mohhamad 2014-Vakrangee-Bharatpur Ladlaka,Pahari Bharatpur   8875058404  10  Active  27-04-2015    26.96  4.49 
948 2011 Anuj Kumar 2014-Vakrangee-Bharatpur ग्राम पंचायत अऊ तहसील डीग  जिला भरतपुर राजस्थान  9828638957  756  Active  27-04-2015    2275.65  330.00 
949 2012 Sukhwant Singh 2014-Vakrangee-Bharatpur MURWARA ROAD, SUNDER VATIKA  ANAND NAGAR, BHARATPUR undefined  8058769755  Active  27-04-2015    0.00 
950 2060 Ashok Kumar 2014-Vakrangee-Bharatpur Dayana Ka Bass Khohri Nagar Bharatpur    9783351699  10369  Active  04-05-2015    664.3  515.41 
951 2062 Gopal Ram Koli 2014-Vakrangee-Bharatpur Near Bus Stand Bhusaware    9887091922  Active  04-05-2015    52.15  0.00 
952 2063 Asu Khan 2014-Vakrangee-Bharatpur Atal Sewa Kendra,Jurhera Kaman,Bharatpur undefined  9828287548  78  Active  05-05-2015    9.51  349.13 
953 2064 Pradeep Kumar 2014-Vakrangee-Bharatpur Near Bus Stand,Heera Das Bharatpur   9782824899  1509  Active  05-05-2015    8.92  401.74 
954 2065 Jeetendra Kumar 2014-Vakrangee-Bharatpur Alamshah,Nagar Bharatpur   8824310939  Active  05-05-2015    -.48  506.96 
955 2066 Ghanshyam Sharma 2014-Vakrangee-Bharatpur Jurhera,Kaman Bharatpur   9887458200  113  Active  05-05-2015    -.12  803.48 
956 2067 Jeetendra Singh 2014-Vakrangee-Bharatpur Shahna,Roopwas Bharatpur   7891440920  419  Active  05-05-2015    .66  5175.73 
957 2069 Dharmendra Singh 2014-Vakrangee-Bharatpur Bachhrain,Weir Bharatpur   9636979736  1592  Active  05-05-2015    -.27  0.00 
958 2074 Suresh Chand 2014-Vakrangee-Bharatpur Near PNB Bank Deeg Bharatpur    9414695077  7053  Active  05-05-2015    .06  200.87 
959 2076 Deepak Kumar 2014-Vakrangee-Bharatpur INFRONT BIJALI GHAR OFFICE, MAAN SINGH CIRCLE  BHARATPUR   9610085507  43  Active  05-05-2015    .07  717.39 
960 2080 Sakir Hussain 2014-Vakrangee-Bharatpur VILL.-MOONGASKATEH/BLOCK .-KAMANDIST.-BHARATPUR    9610030300  45  Active  05-05-2015    .19  0.00 
961 2085 Satish Chand 2014-Vakrangee-Bharatpur NAGAR PALIKA BAYANA,BAYANA BHARATPUR   9460456748  408  Active  05-05-2015    1.82  220.00 
962 2107 Chandra Prakash 2014-Vakrangee-Bharatpur Near Vatnary Hospital Infront Of Collectrate Bharatpur    9875008565  728  Active  13-05-2015    19.84  3864.34 
963 2108 Virendra 2014-Vakrangee-Bharatpur Sirthala,Nagar Bharatpur   8003120878  3613  Active  13-05-2015    .61  33.48 
964 2109 Shakrulla Khan 2014-Vakrangee-Bharatpur Jalalpur,Nagar Bharatpur   8890841456  1500  Active  13-05-2015    .26  114.78 
965 2110 Abhishek Jain 2014-Vakrangee-Bharatpur Ward No 10,Weir Bharatpur   05643272027  319  Active  13-05-2015    1033.44  0.00 
966 2112 Dilip Kumar Mathur 2014-Vakrangee-Bharatpur EXCELL INFOTECH, ATAL BANDH  BHARATPUR   9024636465  225  Active  14-05-2015    162.1  57.39 
967 2115 Jeetendra Singh 2014-Vakrangee-Bharatpur G.P- SOGAR, KUMHER  BHARATPUR   8385919296  195  Active  14-05-2015    .21  406.52 
968 2116 Tahir Mohammad 2014-Vakrangee-Bharatpur V&P- LADMAKA, PAHARI  BHARATPUR   9828554381  509  Active  14-05-2015    -.13  285.04 
969 2117 Akbar Hussain 2014-Vakrangee-Bharatpur G.P. JOTRI PEEPAL, PAHARI  BHARATPUR   8094740181  110  Active  14-05-2015    13.87  0.00 
970 2119 Lala Ram 2014-Vakrangee-Bharatpur Pahari,Nagar Bharatpur   9828116381  484  Active  14-05-2015    950.01  0.22 
971 2121 Ram Lal Yogi 2014-Vakrangee-Bharatpur Atal Sewa Kendra,Mudiya Nagar,Bharatpur undefined  9784028801  68  Active  14-05-2015    689.68  28.65 
972 2122 Sahoon Khan 2014-Vakrangee-Bharatpur Atal Sewa Kendra Dunawal,Nagar Bharatpur   9166731376  280  Active  14-05-2015    .08  0.00 
973 2124 Prabhu Dayal Sharma 2014-Vakrangee-Bharatpur Atal Sewa Kendra,Gangawak Nagar,Bharatpur undefined  9828574840  779  Active